<?xml version="1.0" encoding="UTF-8" standalone="no" ?><gpx xmlns="http://www.topografix.com/GPX/1/1" xmlns:gpxx="http://www.garmin.com/xmlschemas/GpxExtensions/v3" xmlns:wptx1="http://www.garmin.com/xmlschemas/WaypointExtension/v1" xmlns:gpxtpx="http://www.garmin.com/xmlschemas/TrackPointExtension/v1" creator="GuideVTT.com" version="1.1" xmlns:xsi="http://www.w3.org/2001/XMLSchema-instance" xsi:schemaLocation="http://www.topografix.com/GPX/1/1 http://www.topografix.com/GPX/1/1/gpx.xsd http://www.garmin.com/xmlschemas/GpxExtensions/v3 http://www8.garmin.com/xmlschemas/GpxExtensionsv3.xsd http://www.garmin.com/xmlschemas/WaypointExtension/v1 http://www8.garmin.com/xmlschemas/WaypointExtensionv1.xsd http://www.garmin.com/xmlschemas/TrackPointExtension/v1 http://www.garmin.com/xmlschemas/TrackPointExtensionv1.xsd">
<metadata><link href="http://www.garmin.com"><text>Garmin International</text></link><time>2013-06-22T15:13:50Z</time></metadata>
<trk><name>rp2015_16b.gpx</name><extensions><gpxx:TrackExtension><gpxx:DisplayColor>Cyan</gpxx:DisplayColor></gpxx:TrackExtension></extensions><trkseg>
<trkpt lat="46.6000113543" lon="6.3695683144"><ele></ele><time>2015-10-10T4:41:8Z</time></trkpt>
<trkpt lat="46.6004123446" lon="6.3690180425"><ele></ele><time>2015-10-10T4:41:11Z</time></trkpt>
<trkpt lat="46.6004156135" lon="6.3690429367"><ele></ele><time>2015-10-10T4:41:14Z</time></trkpt>
<trkpt lat="46.6004177090" lon="6.3689976744"><ele></ele><time>2015-10-10T4:41:17Z</time></trkpt>
<trkpt lat="46.6004170384" lon="6.3689830899"><ele></ele><time>2015-10-10T4:41:20Z</time></trkpt>
<trkpt lat="46.6004255041" lon="6.3689833414"><ele></ele><time>2015-10-10T4:41:23Z</time></trkpt>
<trkpt lat="46.6004211456" lon="6.3690022845"><ele></ele><time>2015-10-10T4:41:26Z</time></trkpt>
<trkpt lat="46.6004197206" lon="6.3689934835"><ele></ele><time>2015-10-10T4:41:29Z</time></trkpt>
<trkpt lat="46.6004208103" lon="6.3689879514"><ele></ele><time>2015-10-10T4:41:32Z</time></trkpt>
<trkpt lat="46.6004142724" lon="6.3689892087"><ele></ele><time>2015-10-10T4:41:35Z</time></trkpt>
<trkpt lat="46.6004050523" lon="6.3689891249"><ele></ele><time>2015-10-10T4:41:38Z</time></trkpt>
<trkpt lat="46.6004033759" lon="6.3689829223"><ele></ele><time>2015-10-10T4:41:41Z</time></trkpt>
<trkpt lat="46.6004129313" lon="6.3689758815"><ele></ele><time>2015-10-10T4:41:44Z</time></trkpt>
<trkpt lat="46.6004137695" lon="6.3689735346"><ele></ele><time>2015-10-10T4:41:47Z</time></trkpt>
<trkpt lat="46.6004058067" lon="6.3689787313"><ele></ele><time>2015-10-10T4:41:50Z</time></trkpt>
<trkpt lat="46.6004026216" lon="6.3689808268"><ele></ele><time>2015-10-10T4:41:53Z</time></trkpt>
<trkpt lat="46.6003993526" lon="6.3690015301"><ele></ele><time>2015-10-10T4:41:56Z</time></trkpt>
<trkpt lat="46.6004027892" lon="6.3690015301"><ele></ele><time>2015-10-10T4:41:59Z</time></trkpt>
<trkpt lat="46.6004034597" lon="6.3690038770"><ele></ele><time>2015-10-10T4:42:2Z</time></trkpt>
<trkpt lat="46.6004092433" lon="6.3690058049"><ele></ele><time>2015-10-10T4:42:5Z</time></trkpt>
<trkpt lat="46.6004156973" lon="6.3690078165"><ele></ele><time>2015-10-10T4:42:8Z</time></trkpt>
<trkpt lat="46.6004177090" lon="6.3690084033"><ele></ele><time>2015-10-10T4:42:11Z</time></trkpt>
<trkpt lat="46.6004148591" lon="6.3690213114"><ele></ele><time>2015-10-10T4:42:14Z</time></trkpt>
<trkpt lat="46.6004084889" lon="6.3690137677"><ele></ele><time>2015-10-10T4:42:17Z</time></trkpt>
<trkpt lat="46.6004061420" lon="6.3690114208"><ele></ele><time>2015-10-10T4:42:20Z</time></trkpt>
<trkpt lat="46.6004074831" lon="6.3690123428"><ele></ele><time>2015-10-10T4:42:23Z</time></trkpt>
<trkpt lat="46.6004079022" lon="6.3690019492"><ele></ele><time>2015-10-10T4:42:26Z</time></trkpt>
<trkpt lat="46.6004077345" lon="6.3690023683"><ele></ele><time>2015-10-10T4:42:29Z</time></trkpt>
<trkpt lat="46.6004143562" lon="6.3690150250"><ele></ele><time>2015-10-10T4:42:32Z</time></trkpt>
<trkpt lat="46.6004397534" lon="6.3689824194"><ele></ele><time>2015-10-10T4:42:35Z</time></trkpt>
<trkpt lat="46.6004344728" lon="6.3689853530"><ele></ele><time>2015-10-10T4:42:38Z</time></trkpt>
<trkpt lat="46.6004452854" lon="6.3689415995"><ele></ele><time>2015-10-10T4:42:41Z</time></trkpt>
<trkpt lat="46.6004548408" lon="6.3687156234"><ele></ele><time>2015-10-10T4:42:44Z</time></trkpt>
<trkpt lat="46.6004900448" lon="6.3683186565"><ele></ele><time>2015-10-10T4:42:47Z</time></trkpt>
<trkpt lat="46.6004984267" lon="6.3679474220"><ele></ele><time>2015-10-10T4:42:50Z</time></trkpt>
<trkpt lat="46.6005650628" lon="6.3675600942"><ele></ele><time>2015-10-10T4:42:53Z</time></trkpt>
<trkpt lat="46.6006291006" lon="6.3670935575"><ele></ele><time>2015-10-10T4:42:56Z</time></trkpt>
<trkpt lat="46.6007011849" lon="6.3666335586"><ele></ele><time>2015-10-10T4:42:59Z</time></trkpt>
<trkpt lat="46.6007562540" lon="6.3662391901"><ele></ele><time>2015-10-10T4:43:2Z</time></trkpt>
<trkpt lat="46.6008072998" lon="6.3658728171"><ele></ele><time>2015-10-10T4:43:5Z</time></trkpt>
<trkpt lat="46.6008563340" lon="6.3655698113"><ele></ele><time>2015-10-10T4:43:8Z</time></trkpt>
<trkpt lat="46.6008997522" lon="6.3653195277"><ele></ele><time>2015-10-10T4:43:11Z</time></trkpt>
<trkpt lat="46.6009689029" lon="6.3650253229"><ele></ele><time>2015-10-10T4:43:14Z</time></trkpt>
<trkpt lat="46.6009979881" lon="6.3648859318"><ele></ele><time>2015-10-10T4:43:17Z</time></trkpt>
<trkpt lat="46.6010222118" lon="6.3647098280"><ele></ele><time>2015-10-10T4:43:20Z</time></trkpt>
<trkpt lat="46.6010287497" lon="6.3647281844"><ele></ele><time>2015-10-10T4:43:23Z</time></trkpt>
<trkpt lat="46.6010850761" lon="6.3644776493"><ele></ele><time>2015-10-10T4:43:26Z</time></trkpt>
<trkpt lat="46.6010972299" lon="6.3644261844"><ele></ele><time>2015-10-10T4:43:29Z</time></trkpt>
<trkpt lat="46.6011537239" lon="6.3641509227"><ele></ele><time>2015-10-10T4:43:32Z</time></trkpt>
<trkpt lat="46.6012044344" lon="6.3638922572"><ele></ele><time>2015-10-10T4:43:35Z</time></trkpt>
<trkpt lat="46.6011849046" lon="6.3636303227"><ele></ele><time>2015-10-10T4:43:38Z</time></trkpt>
<trkpt lat="46.6011015885" lon="6.3635490183"><ele></ele><time>2015-10-10T4:43:41Z</time></trkpt>
<trkpt lat="46.6008846648" lon="6.3635407202"><ele></ele><time>2015-10-10T4:43:44Z</time></trkpt>
<trkpt lat="46.6007921286" lon="6.3635713980"><ele></ele><time>2015-10-10T4:43:47Z</time></trkpt>
<trkpt lat="46.6007380653" lon="6.3636084460"><ele></ele><time>2015-10-10T4:43:50Z</time></trkpt>
<trkpt lat="46.6005729418" lon="6.3637282234"><ele></ele><time>2015-10-10T4:43:53Z</time></trkpt>
<trkpt lat="46.6004740354" lon="6.3638167363"><ele></ele><time>2015-10-10T4:43:56Z</time></trkpt>
<trkpt lat="46.6004285216" lon="6.3638552930"><ele></ele><time>2015-10-10T4:43:59Z</time></trkpt>
<trkpt lat="46.6002183035" lon="6.3639160618"><ele></ele><time>2015-10-10T4:44:2Z</time></trkpt>
<trkpt lat="46.6000245977" lon="6.3639074285"><ele></ele><time>2015-10-10T4:44:5Z</time></trkpt>
<trkpt lat="46.5998517629" lon="6.3639264554"><ele></ele><time>2015-10-10T4:44:8Z</time></trkpt>
<trkpt lat="46.5998078417" lon="6.3639509305"><ele></ele><time>2015-10-10T4:44:11Z</time></trkpt>
<trkpt lat="46.5996901598" lon="6.3641183171"><ele></ele><time>2015-10-10T4:44:14Z</time></trkpt>
<trkpt lat="46.5995602403" lon="6.3643615600"><ele></ele><time>2015-10-10T4:44:17Z</time></trkpt>
<trkpt lat="46.5994350985" lon="6.3645957503"><ele></ele><time>2015-10-10T4:44:20Z</time></trkpt>
<trkpt lat="46.5993161593" lon="6.3648314495"><ele></ele><time>2015-10-10T4:44:23Z</time></trkpt>
<trkpt lat="46.5992212761" lon="6.3649969082"><ele></ele><time>2015-10-10T4:44:26Z</time></trkpt>
<trkpt lat="46.5992131457" lon="6.3650170248"><ele></ele><time>2015-10-10T4:44:29Z</time></trkpt>
<trkpt lat="46.5990628581" lon="6.3652273268"><ele></ele><time>2015-10-10T4:44:32Z</time></trkpt>
<trkpt lat="46.5990022570" lon="6.3652787078"><ele></ele><time>2015-10-10T4:44:35Z</time></trkpt>
<trkpt lat="46.5989795420" lon="6.3652796298"><ele></ele><time>2015-10-10T4:44:38Z</time></trkpt>
<trkpt lat="46.5989555698" lon="6.3652730919"><ele></ele><time>2015-10-10T4:44:41Z</time></trkpt>
<trkpt lat="46.5989086311" lon="6.3652414922"><ele></ele><time>2015-10-10T4:44:44Z</time></trkpt>
<trkpt lat="46.5988048632" lon="6.3651133329"><ele></ele><time>2015-10-10T4:44:47Z</time></trkpt>
<trkpt lat="46.5987086389" lon="6.3649767078"><ele></ele><time>2015-10-10T4:44:50Z</time></trkpt>
<trkpt lat="46.5986839123" lon="6.3649420068"><ele></ele><time>2015-10-10T4:44:53Z</time></trkpt>
<trkpt lat="46.5985799767" lon="6.3647822477"><ele></ele><time>2015-10-10T4:44:56Z</time></trkpt>
<trkpt lat="46.5984836686" lon="6.3646151964"><ele></ele><time>2015-10-10T4:44:59Z</time></trkpt>
<trkpt lat="46.5983957425" lon="6.3644333091"><ele></ele><time>2015-10-10T4:45:2Z</time></trkpt>
<trkpt lat="46.5983891208" lon="6.3644185569"><ele></ele><time>2015-10-10T4:45:5Z</time></trkpt>
<trkpt lat="46.5982603747" lon="6.3642416149"><ele></ele><time>2015-10-10T4:45:8Z</time></trkpt>
<trkpt lat="46.5982177947" lon="6.3640937582"><ele></ele><time>2015-10-10T4:45:11Z</time></trkpt>
<trkpt lat="46.5981207322" lon="6.3638554607"><ele></ele><time>2015-10-10T4:45:14Z</time></trkpt>
<trkpt lat="46.5980323032" lon="6.3636882417"><ele></ele><time>2015-10-10T4:45:17Z</time></trkpt>
<trkpt lat="46.5978747234" lon="6.3635102939"><ele></ele><time>2015-10-10T4:45:20Z</time></trkpt>
<trkpt lat="46.5977654234" lon="6.3632939570"><ele></ele><time>2015-10-10T4:45:23Z</time></trkpt>
<trkpt lat="46.5977304708" lon="6.3631386403"><ele></ele><time>2015-10-10T4:45:26Z</time></trkpt>
<trkpt lat="46.5977268666" lon="6.3630608562"><ele></ele><time>2015-10-10T4:45:29Z</time></trkpt>
<trkpt lat="46.5976912435" lon="6.3628869317"><ele></ele><time>2015-10-10T4:45:32Z</time></trkpt>
<trkpt lat="46.5976702049" lon="6.3628093153"><ele></ele><time>2015-10-10T4:45:35Z</time></trkpt>
<trkpt lat="46.5975651797" lon="6.3625441119"><ele></ele><time>2015-10-10T4:45:38Z</time></trkpt>
<trkpt lat="46.5974912513" lon="6.3624322973"><ele></ele><time>2015-10-10T4:45:41Z</time></trkpt>
<trkpt lat="46.5974612441" lon="6.3623994403"><ele></ele><time>2015-10-10T4:45:44Z</time></trkpt>
<trkpt lat="46.5972136427" lon="6.3622830994"><ele></ele><time>2015-10-10T4:45:47Z</time></trkpt>
<trkpt lat="46.5969983116" lon="6.3621994480"><ele></ele><time>2015-10-10T4:45:50Z</time></trkpt>
<trkpt lat="46.5967995767" lon="6.3621442951"><ele></ele><time>2015-10-10T4:45:53Z</time></trkpt>
<trkpt lat="46.5966709983" lon="6.3619750645"><ele></ele><time>2015-10-10T4:45:56Z</time></trkpt>
<trkpt lat="46.5967367962" lon="6.3618274592"><ele></ele><time>2015-10-10T4:45:59Z</time></trkpt>
<trkpt lat="46.5968505386" lon="6.3618263695"><ele></ele><time>2015-10-10T4:46:2Z</time></trkpt>
<trkpt lat="46.5970019996" lon="6.3618267048"><ele></ele><time>2015-10-10T4:46:5Z</time></trkpt>
<trkpt lat="46.5970828850" lon="6.3618308958"><ele></ele><time>2015-10-10T4:46:8Z</time></trkpt>
<trkpt lat="46.5970699769" lon="6.3618142996"><ele></ele><time>2015-10-10T4:46:11Z</time></trkpt>
<trkpt lat="46.5971081983" lon="6.3618106116"><ele></ele><time>2015-10-10T4:46:14Z</time></trkpt>
<trkpt lat="46.5972484276" lon="6.3618118688"><ele></ele><time>2015-10-10T4:46:17Z</time></trkpt>
<trkpt lat="46.5973803587" lon="6.3618185744"><ele></ele><time>2015-10-10T4:46:20Z</time></trkpt>
<trkpt lat="46.5975559596" lon="6.3618139643"><ele></ele><time>2015-10-10T4:46:23Z</time></trkpt>
<trkpt lat="46.5977212507" lon="6.3618056662"><ele></ele><time>2015-10-10T4:46:26Z</time></trkpt>
<trkpt lat="46.5978489909" lon="6.3617992122"><ele></ele><time>2015-10-10T4:46:29Z</time></trkpt>
<trkpt lat="46.5980299562" lon="6.3617875613"><ele></ele><time>2015-10-10T4:46:32Z</time></trkpt>
<trkpt lat="46.5981028788" lon="6.3617848791"><ele></ele><time>2015-10-10T4:46:35Z</time></trkpt>
<trkpt lat="46.5983284358" lon="6.3617931772"><ele></ele><time>2015-10-10T4:46:38Z</time></trkpt>
<trkpt lat="46.5985434316" lon="6.3617010601"><ele></ele><time>2015-10-10T4:46:41Z</time></trkpt>
<trkpt lat="46.5986537375" lon="6.3614329230"><ele></ele><time>2015-10-10T4:46:44Z</time></trkpt>
<trkpt lat="46.5987579245" lon="6.3610403147"><ele></ele><time>2015-10-10T4:46:47Z</time></trkpt>
<trkpt lat="46.5988246445" lon="6.3607150968"><ele></ele><time>2015-10-10T4:46:50Z</time></trkpt>
<trkpt lat="46.5988733433" lon="6.3604324590"><ele></ele><time>2015-10-10T4:46:53Z</time></trkpt>
<trkpt lat="46.5989535581" lon="6.3601943292"><ele></ele><time>2015-10-10T4:46:56Z</time></trkpt>
<trkpt lat="46.5990490280" lon="6.3599434588"><ele></ele><time>2015-10-10T4:46:59Z</time></trkpt>
<trkpt lat="46.5991500299" lon="6.3597938418"><ele></ele><time>2015-10-10T4:47:2Z</time></trkpt>
<trkpt lat="46.5992511157" lon="6.3595604897"><ele></ele><time>2015-10-10T4:47:5Z</time></trkpt>
<trkpt lat="46.5993383713" lon="6.3593821228"><ele></ele><time>2015-10-10T4:47:8Z</time></trkpt>
<trkpt lat="46.5994585678" lon="6.3591598347"><ele></ele><time>2015-10-10T4:47:11Z</time></trkpt>
<trkpt lat="46.5995388664" lon="6.3590234611"><ele></ele><time>2015-10-10T4:47:14Z</time></trkpt>
<trkpt lat="46.5996640082" lon="6.3588630315"><ele></ele><time>2015-10-10T4:47:17Z</time></trkpt>
<trkpt lat="46.5998103563" lon="6.3587606046"><ele></ele><time>2015-10-10T4:47:20Z</time></trkpt>
<trkpt lat="46.5999020543" lon="6.3587987423"><ele></ele><time>2015-10-10T4:47:23Z</time></trkpt>
<trkpt lat="46.5999491606" lon="6.3589025941"><ele></ele><time>2015-10-10T4:47:26Z</time></trkpt>
<trkpt lat="46.5999838617" lon="6.3590328488"><ele></ele><time>2015-10-10T4:47:29Z</time></trkpt>
<trkpt lat="46.6000069119" lon="6.3591119740"><ele></ele><time>2015-10-10T4:47:32Z</time></trkpt>
<trkpt lat="46.6000955924" lon="6.3592667878"><ele></ele><time>2015-10-10T4:47:35Z</time></trkpt>
<trkpt lat="46.6001448780" lon="6.3592682127"><ele></ele><time>2015-10-10T4:47:38Z</time></trkpt>
<trkpt lat="46.6002300382" lon="6.3591377903"><ele></ele><time>2015-10-10T4:47:41Z</time></trkpt>
<trkpt lat="46.6001736280" lon="6.3589315116"><ele></ele><time>2015-10-10T4:47:44Z</time></trkpt>
<trkpt lat="46.6001435369" lon="6.3587943837"><ele></ele><time>2015-10-10T4:47:47Z</time></trkpt>
<trkpt lat="46.6001370829" lon="6.3587028533"><ele></ele><time>2015-10-10T4:47:50Z</time></trkpt>
<trkpt lat="46.6001613904" lon="6.3585160207"><ele></ele><time>2015-10-10T4:47:53Z</time></trkpt>
<trkpt lat="46.6001830157" lon="6.3583886158"><ele></ele><time>2015-10-10T4:47:56Z</time></trkpt>
<trkpt lat="46.6001794115" lon="6.3582361490"><ele></ele><time>2015-10-10T4:47:59Z</time></trkpt>
<trkpt lat="46.6001391783" lon="6.3581012841"><ele></ele><time>2015-10-10T4:48:2Z</time></trkpt>
<trkpt lat="46.5999901481" lon="6.3580268528"><ele></ele><time>2015-10-10T4:48:5Z</time></trkpt>
<trkpt lat="46.5998831950" lon="6.3580778148"><ele></ele><time>2015-10-10T4:48:8Z</time></trkpt>
<trkpt lat="46.5998174809" lon="6.3581191376"><ele></ele><time>2015-10-10T4:48:11Z</time></trkpt>
<trkpt lat="46.5997051634" lon="6.3581794873"><ele></ele><time>2015-10-10T4:48:14Z</time></trkpt>
<trkpt lat="46.5996466577" lon="6.3582304493"><ele></ele><time>2015-10-10T4:48:17Z</time></trkpt>
<trkpt lat="46.5994257946" lon="6.3582973368"><ele></ele><time>2015-10-10T4:48:20Z</time></trkpt>
<trkpt lat="46.5992639400" lon="6.3583630510"><ele></ele><time>2015-10-10T4:48:23Z</time></trkpt>
<trkpt lat="46.5992102958" lon="6.3583615422"><ele></ele><time>2015-10-10T4:48:26Z</time></trkpt>
<trkpt lat="46.5991211962" lon="6.3584089000"><ele></ele><time>2015-10-10T4:48:29Z</time></trkpt>
<trkpt lat="46.5988858324" lon="6.3586349599"><ele></ele><time>2015-10-10T4:48:32Z</time></trkpt>
<trkpt lat="46.5986446850" lon="6.3587688189"><ele></ele><time>2015-10-10T4:48:35Z</time></trkpt>
<trkpt lat="46.5984744485" lon="6.3587523904"><ele></ele><time>2015-10-10T4:48:38Z</time></trkpt>
<trkpt lat="46.5982888732" lon="6.3587456010"><ele></ele><time>2015-10-10T4:48:41Z</time></trkpt>
<trkpt lat="46.5980974305" lon="6.3587146718"><ele></ele><time>2015-10-10T4:48:44Z</time></trkpt>
<trkpt lat="46.5978917386" lon="6.3587138336"><ele></ele><time>2015-10-10T4:48:47Z</time></trkpt>
<trkpt lat="46.5976298042" lon="6.3588281628"><ele></ele><time>2015-10-10T4:48:50Z</time></trkpt>
<trkpt lat="46.5974775050" lon="6.3587344531"><ele></ele><time>2015-10-10T4:48:53Z</time></trkpt>
<trkpt lat="46.5973885730" lon="6.3586287573"><ele></ele><time>2015-10-10T4:48:56Z</time></trkpt>
<trkpt lat="46.5973783471" lon="6.3586363010"><ele></ele><time>2015-10-10T4:48:59Z</time></trkpt>
<trkpt lat="46.5973721445" lon="6.3586382288"><ele></ele><time>2015-10-10T4:49:2Z</time></trkpt>
<trkpt lat="46.5973621700" lon="6.3585995045"><ele></ele><time>2015-10-10T4:49:5Z</time></trkpt>
<trkpt lat="46.5973578114" lon="6.3586046174"><ele></ele><time>2015-10-10T4:49:8Z</time></trkpt>
<trkpt lat="46.5973433107" lon="6.3586043660"><ele></ele><time>2015-10-10T4:49:11Z</time></trkpt>
<trkpt lat="46.5973557159" lon="6.3586013485"><ele></ele><time>2015-10-10T4:49:14Z</time></trkpt>
<trkpt lat="46.5973652713" lon="6.3585808128"><ele></ele><time>2015-10-10T4:49:17Z</time></trkpt>
<trkpt lat="46.5973703843" lon="6.3585641328"><ele></ele><time>2015-10-10T4:49:20Z</time></trkpt>
<trkpt lat="46.5973661933" lon="6.3585729338"><ele></ele><time>2015-10-10T4:49:23Z</time></trkpt>
<trkpt lat="46.5973829571" lon="6.3585529011"><ele></ele><time>2015-10-10T4:49:26Z</time></trkpt>
<trkpt lat="46.5974072646" lon="6.3585462794"><ele></ele><time>2015-10-10T4:49:29Z</time></trkpt>
<trkpt lat="46.5975457337" lon="6.3584722672"><ele></ele><time>2015-10-10T4:49:32Z</time></trkpt>
<trkpt lat="46.5977319796" lon="6.3583649788"><ele></ele><time>2015-10-10T4:49:35Z</time></trkpt>
<trkpt lat="46.5979370009" lon="6.3582874462"><ele></ele><time>2015-10-10T4:49:38Z</time></trkpt>
<trkpt lat="46.5981181338" lon="6.3582028728"><ele></ele><time>2015-10-10T4:49:41Z</time></trkpt>
<trkpt lat="46.5982748754" lon="6.3580651581"><ele></ele><time>2015-10-10T4:49:44Z</time></trkpt>
<trkpt lat="46.5983913001" lon="6.3578693569"><ele></ele><time>2015-10-10T4:49:47Z</time></trkpt>
<trkpt lat="46.5984921344" lon="6.3576571271"><ele></ele><time>2015-10-10T4:49:50Z</time></trkpt>
<trkpt lat="46.5985866822" lon="6.3573955279"><ele></ele><time>2015-10-10T4:49:53Z</time></trkpt>
<trkpt lat="46.5986639634" lon="6.3570254669"><ele></ele><time>2015-10-10T4:49:56Z</time></trkpt>
<trkpt lat="46.5987256542" lon="6.3567499537"><ele></ele><time>2015-10-10T4:49:59Z</time></trkpt>
<trkpt lat="46.5988108981" lon="6.3566044439"><ele></ele><time>2015-10-10T4:50:2Z</time></trkpt>
<trkpt lat="46.5989257302" lon="6.3564010989"><ele></ele><time>2015-10-10T4:50:5Z</time></trkpt>
<trkpt lat="46.5990705695" lon="6.3562859315"><ele></ele><time>2015-10-10T4:50:8Z</time></trkpt>
<trkpt lat="46.5992275625" lon="6.3562257495"><ele></ele><time>2015-10-10T4:50:11Z</time></trkpt>
<trkpt lat="46.5993833821" lon="6.3561529107"><ele></ele><time>2015-10-10T4:50:14Z</time></trkpt>
<trkpt lat="46.5995627549" lon="6.3560451195"><ele></ele><time>2015-10-10T4:50:17Z</time></trkpt>
<trkpt lat="46.5997698717" lon="6.3558963407"><ele></ele><time>2015-10-10T4:50:20Z</time></trkpt>
<trkpt lat="46.5998988692" lon="6.3557188958"><ele></ele><time>2015-10-10T4:50:23Z</time></trkpt>
<trkpt lat="46.5999076702" lon="6.3557079993"><ele></ele><time>2015-10-10T4:50:26Z</time></trkpt>
<trkpt lat="46.6000418644" lon="6.3555242680"><ele></ele><time>2015-10-10T4:50:29Z</time></trkpt>
<trkpt lat="46.6001645755" lon="6.3552681170"><ele></ele><time>2015-10-10T4:50:32Z</time></trkpt>
<trkpt lat="46.6002369113" lon="6.3550791051"><ele></ele><time>2015-10-10T4:50:35Z</time></trkpt>
<trkpt lat="46.6002783179" lon="6.3549580704"><ele></ele><time>2015-10-10T4:50:38Z</time></trkpt>
<trkpt lat="46.6003725305" lon="6.3548097108"><ele></ele><time>2015-10-10T4:50:41Z</time></trkpt>
<trkpt lat="46.6003802419" lon="6.3548052683"><ele></ele><time>2015-10-10T4:50:44Z</time></trkpt>
<trkpt lat="46.6004372388" lon="6.3548037596"><ele></ele><time>2015-10-10T4:50:47Z</time></trkpt>
<trkpt lat="46.6005657334" lon="6.3548284024"><ele></ele><time>2015-10-10T4:50:50Z</time></trkpt>
<trkpt lat="46.6006233171" lon="6.3548496086"><ele></ele><time>2015-10-10T4:50:53Z</time></trkpt>
<trkpt lat="46.6008048691" lon="6.3550663646"><ele></ele><time>2015-10-10T4:50:56Z</time></trkpt>
<trkpt lat="46.6009198688" lon="6.3552345056"><ele></ele><time>2015-10-10T4:50:59Z</time></trkpt>
<trkpt lat="46.6010896862" lon="6.3554380182"><ele></ele><time>2015-10-10T4:51:2Z</time></trkpt>
<trkpt lat="46.6012575757" lon="6.3555603102"><ele></ele><time>2015-10-10T4:51:5Z</time></trkpt>
<trkpt lat="46.6014071926" lon="6.3556073327"><ele></ele><time>2015-10-10T4:51:8Z</time></trkpt>
<trkpt lat="46.6015278082" lon="6.3555187359"><ele></ele><time>2015-10-10T4:51:11Z</time></trkpt>
<trkpt lat="46.6016753297" lon="6.3554124534"><ele></ele><time>2015-10-10T4:51:14Z</time></trkpt>
<trkpt lat="46.6017620824" lon="6.3553633355"><ele></ele><time>2015-10-10T4:51:17Z</time></trkpt>
<trkpt lat="46.6019095201" lon="6.3554634154"><ele></ele><time>2015-10-10T4:51:20Z</time></trkpt>
<trkpt lat="46.6020064149" lon="6.3556704484"><ele></ele><time>2015-10-10T4:51:23Z</time></trkpt>
<trkpt lat="46.6020176467" lon="6.3556753937"><ele></ele><time>2015-10-10T4:51:26Z</time></trkpt>
<trkpt lat="46.6021327302" lon="6.3556517567"><ele></ele><time>2015-10-10T4:51:29Z</time></trkpt>
<trkpt lat="46.6021581274" lon="6.3555893116"><ele></ele><time>2015-10-10T4:51:32Z</time></trkpt>
<trkpt lat="46.6021138709" lon="6.3553474098"><ele></ele><time>2015-10-10T4:51:35Z</time></trkpt>
<trkpt lat="46.6020349972" lon="6.3551396225"><ele></ele><time>2015-10-10T4:51:38Z</time></trkpt>
<trkpt lat="46.6020184848" lon="6.3551108725"><ele></ele><time>2015-10-10T4:51:41Z</time></trkpt>
<trkpt lat="46.6019847896" lon="6.3550281432"><ele></ele><time>2015-10-10T4:51:44Z</time></trkpt>
<trkpt lat="46.6018467396" lon="6.3549194299"><ele></ele><time>2015-10-10T4:51:47Z</time></trkpt>
<trkpt lat="46.6016854718" lon="6.3548340183"><ele></ele><time>2015-10-10T4:51:50Z</time></trkpt>
<trkpt lat="46.6016451549" lon="6.3547994848"><ele></ele><time>2015-10-10T4:51:53Z</time></trkpt>
<trkpt lat="46.6015606653" lon="6.3545928709"><ele></ele><time>2015-10-10T4:51:56Z</time></trkpt>
<trkpt lat="46.6015371121" lon="6.3544967305"><ele></ele><time>2015-10-10T4:51:59Z</time></trkpt>
<trkpt lat="46.6015126370" lon="6.3542523980"><ele></ele><time>2015-10-10T4:52:2Z</time></trkpt>
<trkpt lat="46.6014862340" lon="6.3539984263"><ele></ele><time>2015-10-10T4:52:5Z</time></trkpt>
<trkpt lat="46.6014342662" lon="6.3537487295"><ele></ele><time>2015-10-10T4:52:8Z</time></trkpt>
<trkpt lat="46.6013461724" lon="6.3535186462"><ele></ele><time>2015-10-10T4:52:11Z</time></trkpt>
<trkpt lat="46.6013021674" lon="6.3533334900"><ele></ele><time>2015-10-10T4:52:14Z</time></trkpt>
<trkpt lat="46.6012753453" lon="6.3532236032"><ele></ele><time>2015-10-10T4:52:17Z</time></trkpt>
<trkpt lat="46.6012619343" lon="6.3531433884"><ele></ele><time>2015-10-10T4:52:20Z</time></trkpt>
<trkpt lat="46.6012218688" lon="6.3530420512"><ele></ele><time>2015-10-10T4:52:23Z</time></trkpt>
<trkpt lat="46.6010757722" lon="6.3528936915"><ele></ele><time>2015-10-10T4:52:26Z</time></trkpt>
<trkpt lat="46.6008458566" lon="6.3528123032"><ele></ele><time>2015-10-10T4:52:29Z</time></trkpt>
<trkpt lat="46.6006455291" lon="6.3526042644"><ele></ele><time>2015-10-10T4:52:32Z</time></trkpt>
<trkpt lat="46.6005256679" lon="6.3524001651"><ele></ele><time>2015-10-10T4:52:35Z</time></trkpt>
<trkpt lat="46.6004089918" lon="6.3521871809"><ele></ele><time>2015-10-10T4:52:38Z</time></trkpt>
<trkpt lat="46.6003319621" lon="6.3520014379"><ele></ele><time>2015-10-10T4:52:41Z</time></trkpt>
<trkpt lat="46.6002002824" lon="6.3518021163"><ele></ele><time>2015-10-10T4:52:44Z</time></trkpt>
<trkpt lat="46.6000585444" lon="6.3518042117"><ele></ele><time>2015-10-10T4:52:47Z</time></trkpt>
<trkpt lat="46.5999140404" lon="6.3518433552"><ele></ele><time>2015-10-10T4:52:50Z</time></trkpt>
<trkpt lat="46.5997162275" lon="6.3518818282"><ele></ele><time>2015-10-10T4:52:53Z</time></trkpt>
<trkpt lat="46.5995516907" lon="6.3519629650"><ele></ele><time>2015-10-10T4:52:56Z</time></trkpt>
<trkpt lat="46.5993497707" lon="6.3521018531"><ele></ele><time>2015-10-10T4:52:59Z</time></trkpt>
<trkpt lat="46.5991988964" lon="6.3521825708"><ele></ele><time>2015-10-10T4:53:2Z</time></trkpt>
<trkpt lat="46.5990144946" lon="6.3522511348"><ele></ele><time>2015-10-10T4:53:5Z</time></trkpt>
<trkpt lat="46.5987703297" lon="6.3523444254"><ele></ele><time>2015-10-10T4:53:8Z</time></trkpt>
<trkpt lat="46.5985636320" lon="6.3524089660"><ele></ele><time>2015-10-10T4:53:11Z</time></trkpt>
<trkpt lat="46.5983356442" lon="6.3524839841"><ele></ele><time>2015-10-10T4:53:14Z</time></trkpt>
<trkpt lat="46.5981277730" lon="6.3526297454"><ele></ele><time>2015-10-10T4:53:17Z</time></trkpt>
<trkpt lat="46.5979560278" lon="6.3527855650"><ele></ele><time>2015-10-10T4:53:20Z</time></trkpt>
<trkpt lat="46.5977650881" lon="6.3529469166"><ele></ele><time>2015-10-10T4:53:23Z</time></trkpt>
<trkpt lat="46.5976119507" lon="6.3530584797"><ele></ele><time>2015-10-10T4:53:26Z</time></trkpt>
<trkpt lat="46.5974445641" lon="6.3531621639"><ele></ele><time>2015-10-10T4:53:29Z</time></trkpt>
<trkpt lat="46.5972520318" lon="6.3532412890"><ele></ele><time>2015-10-10T4:53:32Z</time></trkpt>
<trkpt lat="46.5971204359" lon="6.3532169815"><ele></ele><time>2015-10-10T4:53:35Z</time></trkpt>
<trkpt lat="46.5970517881" lon="6.3531657681"><ele></ele><time>2015-10-10T4:53:38Z</time></trkpt>
<trkpt lat="46.5969204437" lon="6.3530554622"><ele></ele><time>2015-10-10T4:53:41Z</time></trkpt>
<trkpt lat="46.5968761873" lon="6.3530150615"><ele></ele><time>2015-10-10T4:53:44Z</time></trkpt>
<trkpt lat="46.5968396422" lon="6.3529863115"><ele></ele><time>2015-10-10T4:53:47Z</time></trkpt>
<trkpt lat="46.5967497043" lon="6.3528946135"><ele></ele><time>2015-10-10T4:53:50Z</time></trkpt>
<trkpt lat="46.5965979081" lon="6.3527148217"><ele></ele><time>2015-10-10T4:53:53Z</time></trkpt>
<trkpt lat="46.5964563377" lon="6.3525908533"><ele></ele><time>2015-10-10T4:53:56Z</time></trkpt>
<trkpt lat="46.5962833352" lon="6.3524482772"><ele></ele><time>2015-10-10T4:53:59Z</time></trkpt>
<trkpt lat="46.5962223988" lon="6.3524027634"><ele></ele><time>2015-10-10T4:54:2Z</time></trkpt>
<trkpt lat="46.5960706864" lon="6.3522690721"><ele></ele><time>2015-10-10T4:54:5Z</time></trkpt>
<trkpt lat="46.5959416050" lon="6.3521314412"><ele></ele><time>2015-10-10T4:54:8Z</time></trkpt>
<trkpt lat="46.5958283655" lon="6.3519575167"><ele></ele><time>2015-10-10T4:54:11Z</time></trkpt>
<trkpt lat="46.5958031360" lon="6.3519151043"><ele></ele><time>2015-10-10T4:54:14Z</time></trkpt>
<trkpt lat="46.5956497472" lon="6.3516794890"><ele></ele><time>2015-10-10T4:54:17Z</time></trkpt>
<trkpt lat="46.5955771599" lon="6.3515470549"><ele></ele><time>2015-10-10T4:54:20Z</time></trkpt>
<trkpt lat="46.5955453925" lon="6.3514820952"><ele></ele><time>2015-10-10T4:54:23Z</time></trkpt>
<trkpt lat="46.5954019781" lon="6.3512878027"><ele></ele><time>2015-10-10T4:54:26Z</time></trkpt>
<trkpt lat="46.5953726415" lon="6.3512545265"><ele></ele><time>2015-10-10T4:54:29Z</time></trkpt>
<trkpt lat="46.5952819493" lon="6.3510738127"><ele></ele><time>2015-10-10T4:54:32Z</time></trkpt>
<trkpt lat="46.5951673687" lon="6.3508806098"><ele></ele><time>2015-10-10T4:54:35Z</time></trkpt>
<trkpt lat="46.5950716473" lon="6.3506688830"><ele></ele><time>2015-10-10T4:54:38Z</time></trkpt>
<trkpt lat="46.5949958749" lon="6.3504699804"><ele></ele><time>2015-10-10T4:54:41Z</time></trkpt>
<trkpt lat="46.5949429013" lon="6.3502713293"><ele></ele><time>2015-10-10T4:54:44Z</time></trkpt>
<trkpt lat="46.5949073620" lon="6.3500406593"><ele></ele><time>2015-10-10T4:54:47Z</time></trkpt>
<trkpt lat="46.5948854852" lon="6.3498163596"><ele></ele><time>2015-10-10T4:54:50Z</time></trkpt>
<trkpt lat="46.5948832221" lon="6.3497971650"><ele></ele><time>2015-10-10T4:54:53Z</time></trkpt>
<trkpt lat="46.5948946215" lon="6.3495546766"><ele></ele><time>2015-10-10T4:54:56Z</time></trkpt>
<trkpt lat="46.5948705655" lon="6.3494166266"><ele></ele><time>2015-10-10T4:54:59Z</time></trkpt>
<trkpt lat="46.5948537178" lon="6.3491401915"><ele></ele><time>2015-10-10T4:55:2Z</time></trkpt>
<trkpt lat="46.5948154964" lon="6.3489922509"><ele></ele><time>2015-10-10T4:55:5Z</time></trkpt>
<trkpt lat="46.5947215352" lon="6.3488022331"><ele></ele><time>2015-10-10T4:55:8Z</time></trkpt>
<trkpt lat="46.5946393926" lon="6.3486444019"><ele></ele><time>2015-10-10T4:55:11Z</time></trkpt>
<trkpt lat="46.5945904423" lon="6.3485356886"><ele></ele><time>2015-10-10T4:55:14Z</time></trkpt>
<trkpt lat="46.5945103113" lon="6.3483951241"><ele></ele><time>2015-10-10T4:55:17Z</time></trkpt>
<trkpt lat="46.5944892727" lon="6.3483453356"><ele></ele><time>2015-10-10T4:55:20Z</time></trkpt>
<trkpt lat="46.5944101475" lon="6.3481729198"><ele></ele><time>2015-10-10T4:55:23Z</time></trkpt>
<trkpt lat="46.5942648053" lon="6.3479318563"><ele></ele><time>2015-10-10T4:55:26Z</time></trkpt>
<trkpt lat="46.5942580998" lon="6.3479229715"><ele></ele><time>2015-10-10T4:55:29Z</time></trkpt>
<trkpt lat="46.5942195430" lon="6.3478784636"><ele></ele><time>2015-10-10T4:55:32Z</time></trkpt>
<trkpt lat="46.5940900426" lon="6.3477550820"><ele></ele><time>2015-10-10T4:55:35Z</time></trkpt>
<trkpt lat="46.5939763840" lon="6.3476095721"><ele></ele><time>2015-10-10T4:55:38Z</time></trkpt>
<trkpt lat="46.5939577762" lon="6.3475762960"><ele></ele><time>2015-10-10T4:55:41Z</time></trkpt>
<trkpt lat="46.5939097479" lon="6.3474503998"><ele></ele><time>2015-10-10T4:55:44Z</time></trkpt>
<trkpt lat="46.5939127654" lon="6.3474264275"><ele></ele><time>2015-10-10T4:55:47Z</time></trkpt>
<trkpt lat="46.5938849375" lon="6.3473648205"><ele></ele><time>2015-10-10T4:55:50Z</time></trkpt>
<trkpt lat="46.5938705206" lon="6.3473313767"><ele></ele><time>2015-10-10T4:55:53Z</time></trkpt>
<trkpt lat="46.5938281920" lon="6.3471924886"><ele></ele><time>2015-10-10T4:55:56Z</time></trkpt>
<trkpt lat="46.5938051417" lon="6.3471182249"><ele></ele><time>2015-10-10T4:55:59Z</time></trkpt>
<trkpt lat="46.5937829297" lon="6.3470746391"><ele></ele><time>2015-10-10T4:56:2Z</time></trkpt>
<trkpt lat="46.5936975181" lon="6.3468399458"><ele></ele><time>2015-10-10T4:56:5Z</time></trkpt>
<trkpt lat="46.5936428681" lon="6.3467145525"><ele></ele><time>2015-10-10T4:56:8Z</time></trkpt>
<trkpt lat="46.5936152916" lon="6.3466200046"><ele></ele><time>2015-10-10T4:56:11Z</time></trkpt>
<trkpt lat="46.5935000405" lon="6.3463636022"><ele></ele><time>2015-10-10T4:56:14Z</time></trkpt>
<trkpt lat="46.5934083425" lon="6.3462262228"><ele></ele><time>2015-10-10T4:56:17Z</time></trkpt>
<trkpt lat="46.5933441371" lon="6.3461125642"><ele></ele><time>2015-10-10T4:56:20Z</time></trkpt>
<trkpt lat="46.5931868926" lon="6.3459115662"><ele></ele><time>2015-10-10T4:56:23Z</time></trkpt>
<trkpt lat="46.5930632595" lon="6.3457214646"><ele></ele><time>2015-10-10T4:56:26Z</time></trkpt>
<trkpt lat="46.5929977968" lon="6.3455218077"><ele></ele><time>2015-10-10T4:56:29Z</time></trkpt>
<trkpt lat="46.5928592440" lon="6.3452550955"><ele></ele><time>2015-10-10T4:56:32Z</time></trkpt>
<trkpt lat="46.5927900095" lon="6.3450992759"><ele></ele><time>2015-10-10T4:56:35Z</time></trkpt>
<trkpt lat="46.5927157458" lon="6.3449772354"><ele></ele><time>2015-10-10T4:56:38Z</time></trkpt>
<trkpt lat="46.5925944597" lon="6.3447422907"><ele></ele><time>2015-10-10T4:56:41Z</time></trkpt>
<trkpt lat="46.5924882609" lon="6.3445210923"><ele></ele><time>2015-10-10T4:56:44Z</time></trkpt>
<trkpt lat="46.5924114827" lon="6.3443628419"><ele></ele><time>2015-10-10T4:56:47Z</time></trkpt>
<trkpt lat="46.5923660528" lon="6.3442811184"><ele></ele><time>2015-10-10T4:56:50Z</time></trkpt>
<trkpt lat="46.5922321938" lon="6.3440292422"><ele></ele><time>2015-10-10T4:56:53Z</time></trkpt>
<trkpt lat="46.5921218880" lon="6.3437951356"><ele></ele><time>2015-10-10T4:56:56Z</time></trkpt>
<trkpt lat="46.5920267534" lon="6.3435994182"><ele></ele><time>2015-10-10T4:56:59Z</time></trkpt>
<trkpt lat="46.5919636376" lon="6.3434684929"><ele></ele><time>2015-10-10T4:57:2Z</time></trkpt>
<trkpt lat="46.5918946546" lon="6.3433272578"><ele></ele><time>2015-10-10T4:57:5Z</time></trkpt>
<trkpt lat="46.5918229055" lon="6.3431398384"><ele></ele><time>2015-10-10T4:57:8Z</time></trkpt>
<trkpt lat="46.5917323809" lon="6.3428791612"><ele></ele><time>2015-10-10T4:57:11Z</time></trkpt>
<trkpt lat="46.5916273557" lon="6.3426489942"><ele></ele><time>2015-10-10T4:57:14Z</time></trkpt>
<trkpt lat="46.5915478114" lon="6.3424096070"><ele></ele><time>2015-10-10T4:57:17Z</time></trkpt>
<trkpt lat="46.5914674290" lon="6.3421841338"><ele></ele><time>2015-10-10T4:57:20Z</time></trkpt>
<trkpt lat="46.5913581289" lon="6.3420343492"><ele></ele><time>2015-10-10T4:57:23Z</time></trkpt>
<trkpt lat="46.5911902394" lon="6.3418134861"><ele></ele><time>2015-10-10T4:57:26Z</time></trkpt>
<trkpt lat="46.5910935961" lon="6.3417216204"><ele></ele><time>2015-10-10T4:57:29Z</time></trkpt>
<trkpt lat="46.5909710526" lon="6.3416511286"><ele></ele><time>2015-10-10T4:57:32Z</time></trkpt>
<trkpt lat="46.5908751637" lon="6.3415156770"><ele></ele><time>2015-10-10T4:57:35Z</time></trkpt>
<trkpt lat="46.5908075217" lon="6.3414105680"><ele></ele><time>2015-10-10T4:57:38Z</time></trkpt>
<trkpt lat="46.5907619242" lon="6.3413244020"><ele></ele><time>2015-10-10T4:57:41Z</time></trkpt>
<trkpt lat="46.5907068551" lon="6.3412273396"><ele></ele><time>2015-10-10T4:57:44Z</time></trkpt>
<trkpt lat="46.5906268079" lon="6.3410733640"><ele></ele><time>2015-10-10T4:57:47Z</time></trkpt>
<trkpt lat="46.5905152448" lon="6.3408024609"><ele></ele><time>2015-10-10T4:57:50Z</time></trkpt>
<trkpt lat="46.5904165898" lon="6.3406102639"><ele></ele><time>2015-10-10T4:57:53Z</time></trkpt>
<trkpt lat="46.5903461818" lon="6.3404611498"><ele></ele><time>2015-10-10T4:57:56Z</time></trkpt>
<trkpt lat="46.5903811343" lon="6.3402296416"><ele></ele><time>2015-10-10T4:57:59Z</time></trkpt>
<trkpt lat="46.5904008318" lon="6.3402236067"><ele></ele><time>2015-10-10T4:58:2Z</time></trkpt>
<trkpt lat="46.5905259736" lon="6.3403225970"><ele></ele><time>2015-10-10T4:58:5Z</time></trkpt>
<trkpt lat="46.5905457549" lon="6.3403641712"><ele></ele><time>2015-10-10T4:58:8Z</time></trkpt>
<trkpt lat="46.5907220263" lon="6.3403631654"><ele></ele><time>2015-10-10T4:58:11Z</time></trkpt>
<trkpt lat="46.5908193402" lon="6.3402541168"><ele></ele><time>2015-10-10T4:58:14Z</time></trkpt>
<trkpt lat="46.5909531154" lon="6.3400577288"><ele></ele><time>2015-10-10T4:58:17Z</time></trkpt>
<trkpt lat="46.5910598170" lon="6.3397864904"><ele></ele><time>2015-10-10T4:58:20Z</time></trkpt>
<trkpt lat="46.5911102761" lon="6.3396263961"><ele></ele><time>2015-10-10T4:58:23Z</time></trkpt>
<trkpt lat="46.5911531914" lon="6.3393119909"><ele></ele><time>2015-10-10T4:58:26Z</time></trkpt>
<trkpt lat="46.5910991281" lon="6.3390301075"><ele></ele><time>2015-10-10T4:58:29Z</time></trkpt>
<trkpt lat="46.5909556299" lon="6.3387464639"><ele></ele><time>2015-10-10T4:58:32Z</time></trkpt>
<trkpt lat="46.5908667818" lon="6.3384537678"><ele></ele><time>2015-10-10T4:58:35Z</time></trkpt>
<trkpt lat="46.5908299852" lon="6.3381339144"><ele></ele><time>2015-10-10T4:58:38Z</time></trkpt>
<trkpt lat="46.5908667818" lon="6.3377136458"><ele></ele><time>2015-10-10T4:58:41Z</time></trkpt>
<trkpt lat="46.5909448173" lon="6.3373190258"><ele></ele><time>2015-10-10T4:58:44Z</time></trkpt>
<trkpt lat="46.5909605753" lon="6.3369050436"><ele></ele><time>2015-10-10T4:58:47Z</time></trkpt>
<trkpt lat="46.5909347590" lon="6.3365701865"><ele></ele><time>2015-10-10T4:58:50Z</time></trkpt>
<trkpt lat="46.5909242816" lon="6.3363205735"><ele></ele><time>2015-10-10T4:58:53Z</time></trkpt>
<trkpt lat="46.5909286402" lon="6.3363113534"><ele></ele><time>2015-10-10T4:58:56Z</time></trkpt>
<trkpt lat="46.5909179114" lon="6.3363088388"><ele></ele><time>2015-10-10T4:58:59Z</time></trkpt>
<trkpt lat="46.5909354296" lon="6.3363007084"><ele></ele><time>2015-10-10T4:59:2Z</time></trkpt>
<trkpt lat="46.5909599047" lon="6.3362864591"><ele></ele><time>2015-10-10T4:59:5Z</time></trkpt>
<trkpt lat="46.5909660235" lon="6.3362880517"><ele></ele><time>2015-10-10T4:59:8Z</time></trkpt>
<trkpt lat="46.5909661073" lon="6.3362906501"><ele></ele><time>2015-10-10T4:59:11Z</time></trkpt>
<trkpt lat="46.5909559652" lon="6.3362530991"><ele></ele><time>2015-10-10T4:59:14Z</time></trkpt>
<trkpt lat="46.5909297299" lon="6.3362329826"><ele></ele><time>2015-10-10T4:59:17Z</time></trkpt>
<trkpt lat="46.5909190848" lon="6.3362064119"><ele></ele><time>2015-10-10T4:59:20Z</time></trkpt>
<trkpt lat="46.5908564720" lon="6.3360084314"><ele></ele><time>2015-10-10T4:59:23Z</time></trkpt>
<trkpt lat="46.5907760058" lon="6.3357475027"><ele></ele><time>2015-10-10T4:59:26Z</time></trkpt>
<trkpt lat="46.5907143150" lon="6.3355683815"><ele></ele><time>2015-10-10T4:59:29Z</time></trkpt>
<trkpt lat="46.5907088667" lon="6.3355143182"><ele></ele><time>2015-10-10T4:59:32Z</time></trkpt>
<trkpt lat="46.5907152370" lon="6.3352703210"><ele></ele><time>2015-10-10T4:59:35Z</time></trkpt>
<trkpt lat="46.5907703899" lon="6.3349606935"><ele></ele><time>2015-10-10T4:59:38Z</time></trkpt>
<trkpt lat="46.5906817093" lon="6.3347524032"><ele></ele><time>2015-10-10T4:59:41Z</time></trkpt>
<trkpt lat="46.5905910172" lon="6.3345895428"><ele></ele><time>2015-10-10T4:59:44Z</time></trkpt>
<trkpt lat="46.5905851498" lon="6.3344821706"><ele></ele><time>2015-10-10T4:59:47Z</time></trkpt>
<trkpt lat="46.5905631054" lon="6.3343870360"><ele></ele><time>2015-10-10T4:59:50Z</time></trkpt>
<trkpt lat="46.5905654524" lon="6.3342961762"><ele></ele><time>2015-10-10T4:59:53Z</time></trkpt>
<trkpt lat="46.5906007402" lon="6.3340504188"><ele></ele><time>2015-10-10T4:59:56Z</time></trkpt>
<trkpt lat="46.5906028356" lon="6.3338624965"><ele></ele><time>2015-10-10T4:59:59Z</time></trkpt>
<trkpt lat="46.5906125586" lon="6.3337397017"><ele></ele><time>2015-10-10T5:0:2Z</time></trkpt>
<trkpt lat="46.5907210205" lon="6.3334449101"><ele></ele><time>2015-10-10T5:0:5Z</time></trkpt>
<trkpt lat="46.5908226091" lon="6.3332953770"><ele></ele><time>2015-10-10T5:0:8Z</time></trkpt>
<trkpt lat="46.5908758342" lon="6.3330610190"><ele></ele><time>2015-10-10T5:0:11Z</time></trkpt>
<trkpt lat="46.5908325836" lon="6.3328653853"><ele></ele><time>2015-10-10T5:0:14Z</time></trkpt>
<trkpt lat="46.5907422267" lon="6.3326097373"><ele></ele><time>2015-10-10T5:0:17Z</time></trkpt>
<trkpt lat="46.5906750038" lon="6.3324244972"><ele></ele><time>2015-10-10T5:0:20Z</time></trkpt>
<trkpt lat="46.5905538853" lon="6.3321486488"><ele></ele><time>2015-10-10T5:0:23Z</time></trkpt>
<trkpt lat="46.5904926974" lon="6.3319420349"><ele></ele><time>2015-10-10T5:0:26Z</time></trkpt>
<trkpt lat="46.5904863272" lon="6.3318103552"><ele></ele><time>2015-10-10T5:0:29Z</time></trkpt>
<trkpt lat="46.5904997382" lon="6.3317805156"><ele></ele><time>2015-10-10T5:0:32Z</time></trkpt>
<trkpt lat="46.5905083716" lon="6.3317420427"><ele></ele><time>2015-10-10T5:0:35Z</time></trkpt>
<trkpt lat="46.5905879159" lon="6.3315508515"><ele></ele><time>2015-10-10T5:0:38Z</time></trkpt>
<trkpt lat="46.5906841401" lon="6.3313712273"><ele></ele><time>2015-10-10T5:0:41Z</time></trkpt>
<trkpt lat="46.5907011554" lon="6.3311612606"><ele></ele><time>2015-10-10T5:0:44Z</time></trkpt>
<trkpt lat="46.5906844754" lon="6.3310924452"><ele></ele><time>2015-10-10T5:0:47Z</time></trkpt>
<trkpt lat="46.5906838048" lon="6.3310372084"><ele></ele><time>2015-10-10T5:0:50Z</time></trkpt>
<trkpt lat="46.5907179192" lon="6.3307530619"><ele></ele><time>2015-10-10T5:0:53Z</time></trkpt>
<trkpt lat="46.5907281451" lon="6.3305560872"><ele></ele><time>2015-10-10T5:0:56Z</time></trkpt>
<trkpt lat="46.5907230321" lon="6.3305296842"><ele></ele><time>2015-10-10T5:0:59Z</time></trkpt>
<trkpt lat="46.5907139797" lon="6.3305062149"><ele></ele><time>2015-10-10T5:1:2Z</time></trkpt>
<trkpt lat="46.5907153208" lon="6.3305071369"><ele></ele><time>2015-10-10T5:1:5Z</time></trkpt>
<trkpt lat="46.5906995628" lon="6.3304227311"><ele></ele><time>2015-10-10T5:1:8Z</time></trkpt>
<trkpt lat="46.5906620957" lon="6.3301754650"><ele></ele><time>2015-10-10T5:1:11Z</time></trkpt>
<trkpt lat="46.5907326713" lon="6.3299684320"><ele></ele><time>2015-10-10T5:1:14Z</time></trkpt>
<trkpt lat="46.5907472558" lon="6.3299246784"><ele></ele><time>2015-10-10T5:1:17Z</time></trkpt>
<trkpt lat="46.5908605792" lon="6.3296298031"><ele></ele><time>2015-10-10T5:1:20Z</time></trkpt>
<trkpt lat="46.5909851342" lon="6.3294537831"><ele></ele><time>2015-10-10T5:1:23Z</time></trkpt>
<trkpt lat="46.5911220107" lon="6.3292510249"><ele></ele><time>2015-10-10T5:1:26Z</time></trkpt>
<trkpt lat="46.5912522655" lon="6.3290645275"><ele></ele><time>2015-10-10T5:1:29Z</time></trkpt>
<trkpt lat="46.5913440473" lon="6.3288628589"><ele></ele><time>2015-10-10T5:1:32Z</time></trkpt>
<trkpt lat="46.5914639086" lon="6.3286422472"><ele></ele><time>2015-10-10T5:1:35Z</time></trkpt>
<trkpt lat="46.5915129427" lon="6.3285084721"><ele></ele><time>2015-10-10T5:1:38Z</time></trkpt>
<trkpt lat="46.5916300379" lon="6.3285423350"><ele></ele><time>2015-10-10T5:1:41Z</time></trkpt>
<trkpt lat="46.5916711930" lon="6.3286012597"><ele></ele><time>2015-10-10T5:1:44Z</time></trkpt>
<trkpt lat="46.5916587878" lon="6.3287865836"><ele></ele><time>2015-10-10T5:1:47Z</time></trkpt>
<trkpt lat="46.5915132780" lon="6.3290802855"><ele></ele><time>2015-10-10T5:1:50Z</time></trkpt>
<trkpt lat="46.5914178919" lon="6.3293453213"><ele></ele><time>2015-10-10T5:1:53Z</time></trkpt>
<trkpt lat="46.5913664270" lon="6.3296171464"><ele></ele><time>2015-10-10T5:1:56Z</time></trkpt>
<trkpt lat="46.5914030559" lon="6.3298987783"><ele></ele><time>2015-10-10T5:1:59Z</time></trkpt>
<trkpt lat="46.5915256832" lon="6.3300711941"><ele></ele><time>2015-10-10T5:2:2Z</time></trkpt>
<trkpt lat="46.5916980151" lon="6.3302228227"><ele></ele><time>2015-10-10T5:2:5Z</time></trkpt>
<trkpt lat="46.5918239113" lon="6.3303404208"><ele></ele><time>2015-10-10T5:2:8Z</time></trkpt>
<trkpt lat="46.5919894539" lon="6.3304470386"><ele></ele><time>2015-10-10T5:2:11Z</time></trkpt>
<trkpt lat="46.5921221394" lon="6.3305572607"><ele></ele><time>2015-10-10T5:2:14Z</time></trkpt>
<trkpt lat="46.5921813995" lon="6.3305853400"><ele></ele><time>2015-10-10T5:2:17Z</time></trkpt>
<trkpt lat="46.5923014283" lon="6.3305251580"><ele></ele><time>2015-10-10T5:2:20Z</time></trkpt>
<trkpt lat="46.5923211258" lon="6.3305498846"><ele></ele><time>2015-10-10T5:2:23Z</time></trkpt>
<trkpt lat="46.5923797153" lon="6.3304679096"><ele></ele><time>2015-10-10T5:2:26Z</time></trkpt>
<trkpt lat="46.5925033484" lon="6.3303257525"><ele></ele><time>2015-10-10T5:2:29Z</time></trkpt>
<trkpt lat="46.5925661288" lon="6.3303342182"><ele></ele><time>2015-10-10T5:2:32Z</time></trkpt>
<trkpt lat="46.5927123930" lon="6.3305067178"><ele></ele><time>2015-10-10T5:2:35Z</time></trkpt>
<trkpt lat="46.5927341860" lon="6.3305510581"><ele></ele><time>2015-10-10T5:2:38Z</time></trkpt>
<trkpt lat="46.5928842220" lon="6.3306673989"><ele></ele><time>2015-10-10T5:2:41Z</time></trkpt>
<trkpt lat="46.5930444002" lon="6.3309274055"><ele></ele><time>2015-10-10T5:2:44Z</time></trkpt>
<trkpt lat="46.5931436419" lon="6.3312219456"><ele></ele><time>2015-10-10T5:2:47Z</time></trkpt>
<trkpt lat="46.5932895709" lon="6.3313217741"><ele></ele><time>2015-10-10T5:2:50Z</time></trkpt>
<trkpt lat="46.5934825223" lon="6.3313131407"><ele></ele><time>2015-10-10T5:2:53Z</time></trkpt>
<trkpt lat="46.5936674271" lon="6.3314466644"><ele></ele><time>2015-10-10T5:2:56Z</time></trkpt>
<trkpt lat="46.5938370768" lon="6.3314782642"><ele></ele><time>2015-10-10T5:2:59Z</time></trkpt>
<trkpt lat="46.5939291101" lon="6.3314813655"><ele></ele><time>2015-10-10T5:3:2Z</time></trkpt>
<trkpt lat="46.5941006877" lon="6.3315427210"><ele></ele><time>2015-10-10T5:3:5Z</time></trkpt>
<trkpt lat="46.5942520648" lon="6.3316714671"><ele></ele><time>2015-10-10T5:3:8Z</time></trkpt>
<trkpt lat="46.5944304317" lon="6.3317676075"><ele></ele><time>2015-10-10T5:3:11Z</time></trkpt>
<trkpt lat="46.5945763607" lon="6.3319923263"><ele></ele><time>2015-10-10T5:3:14Z</time></trkpt>
<trkpt lat="46.5946192760" lon="6.3321266882"><ele></ele><time>2015-10-10T5:3:17Z</time></trkpt>
<trkpt lat="46.5947552305" lon="6.3322899677"><ele></ele><time>2015-10-10T5:3:20Z</time></trkpt>
<trkpt lat="46.5947711561" lon="6.3322970085"><ele></ele><time>2015-10-10T5:3:23Z</time></trkpt>
<trkpt lat="46.5949427336" lon="6.3322632294"><ele></ele><time>2015-10-10T5:3:26Z</time></trkpt>
<trkpt lat="46.5950161591" lon="6.3322533388"><ele></ele><time>2015-10-10T5:3:29Z</time></trkpt>
<trkpt lat="46.5951394569" lon="6.3323101681"><ele></ele><time>2015-10-10T5:3:32Z</time></trkpt>
<trkpt lat="46.5951752476" lon="6.3323851023"><ele></ele><time>2015-10-10T5:3:35Z</time></trkpt>
<trkpt lat="46.5951832104" lon="6.3324810751"><ele></ele><time>2015-10-10T5:3:38Z</time></trkpt>
<trkpt lat="46.5951067675" lon="6.3326716796"><ele></ele><time>2015-10-10T5:3:41Z</time></trkpt>
<trkpt lat="46.5950637683" lon="6.3328932133"><ele></ele><time>2015-10-10T5:3:44Z</time></trkpt>
<trkpt lat="46.5950354375" lon="6.3329866715"><ele></ele><time>2015-10-10T5:3:47Z</time></trkpt>
<trkpt lat="46.5950839687" lon="6.3333795313"><ele></ele><time>2015-10-10T5:3:50Z</time></trkpt>
<trkpt lat="46.5951779298" lon="6.3334915135"><ele></ele><time>2015-10-10T5:3:53Z</time></trkpt>
<trkpt lat="46.5951934364" lon="6.3334951177"><ele></ele><time>2015-10-10T5:3:56Z</time></trkpt>
<trkpt lat="46.5952606592" lon="6.3334743306"><ele></ele><time>2015-10-10T5:3:59Z</time></trkpt>
<trkpt lat="46.5953531954" lon="6.3333962951"><ele></ele><time>2015-10-10T5:4:2Z</time></trkpt>
<trkpt lat="46.5954224300" lon="6.3333051838"><ele></ele><time>2015-10-10T5:4:5Z</time></trkpt>
<trkpt lat="46.5954950172" lon="6.3331813831"><ele></ele><time>2015-10-10T5:4:8Z</time></trkpt>
<trkpt lat="46.5955549479" lon="6.3331040181"><ele></ele><time>2015-10-10T5:4:11Z</time></trkpt>
<trkpt lat="46.5955727175" lon="6.3330927864"><ele></ele><time>2015-10-10T5:4:14Z</time></trkpt>
<trkpt lat="46.5955961030" lon="6.3330898527"><ele></ele><time>2015-10-10T5:4:17Z</time></trkpt>
<trkpt lat="46.5956189856" lon="6.3330743462"><ele></ele><time>2015-10-10T5:4:20Z</time></trkpt>
<trkpt lat="46.5956395213" lon="6.3330445904"><ele></ele><time>2015-10-10T5:4:23Z</time></trkpt>
<trkpt lat="46.5957642440" lon="6.3329624478"><ele></ele><time>2015-10-10T5:4:26Z</time></trkpt>
<trkpt lat="46.5958826803" lon="6.3329034392"><ele></ele><time>2015-10-10T5:4:29Z</time></trkpt>
<trkpt lat="46.5959348995" lon="6.3328385632"><ele></ele><time>2015-10-10T5:4:32Z</time></trkpt>
<trkpt lat="46.5960633103" lon="6.3327283412"><ele></ele><time>2015-10-10T5:4:35Z</time></trkpt>
<trkpt lat="46.5961444471" lon="6.3326773793"><ele></ele><time>2015-10-10T5:4:38Z</time></trkpt>
<trkpt lat="46.5962890349" lon="6.3325523213"><ele></ele><time>2015-10-10T5:4:41Z</time></trkpt>
<trkpt lat="46.5964282583" lon="6.3323411811"><ele></ele><time>2015-10-10T5:4:44Z</time></trkpt>
<trkpt lat="46.5964921284" lon="6.3321091700"><ele></ele><time>2015-10-10T5:4:47Z</time></trkpt>
<trkpt lat="46.5964969061" lon="6.3320763130"><ele></ele><time>2015-10-10T5:4:50Z</time></trkpt>
<trkpt lat="46.5964927152" lon="6.3319447171"><ele></ele><time>2015-10-10T5:4:53Z</time></trkpt>
<trkpt lat="46.5964262467" lon="6.3317414559"><ele></ele><time>2015-10-10T5:4:56Z</time></trkpt>
<trkpt lat="46.5963584371" lon="6.3314617518"><ele></ele><time>2015-10-10T5:4:59Z</time></trkpt>
<trkpt lat="46.5963560063" lon="6.3311705645"><ele></ele><time>2015-10-10T5:5:2Z</time></trkpt>
<trkpt lat="46.5963734407" lon="6.3309828099"><ele></ele><time>2015-10-10T5:5:5Z</time></trkpt>
<trkpt lat="46.5964140929" lon="6.3307876792"><ele></ele><time>2015-10-10T5:5:8Z</time></trkpt>
<trkpt lat="46.5964259114" lon="6.3307521399"><ele></ele><time>2015-10-10T5:5:11Z</time></trkpt>
<trkpt lat="46.5964193735" lon="6.3305777963"><ele></ele><time>2015-10-10T5:5:14Z</time></trkpt>
<trkpt lat="46.5963647235" lon="6.3303313684"><ele></ele><time>2015-10-10T5:5:17Z</time></trkpt>
<trkpt lat="46.5962721873" lon="6.3300051447"><ele></ele><time>2015-10-10T5:5:20Z</time></trkpt>
<trkpt lat="46.5961933136" lon="6.3296809327"><ele></ele><time>2015-10-10T5:5:23Z</time></trkpt>
<trkpt lat="46.5962884482" lon="6.3293764181"><ele></ele><time>2015-10-10T5:5:26Z</time></trkpt>
<trkpt lat="46.5963265020" lon="6.3290395495"><ele></ele><time>2015-10-10T5:5:29Z</time></trkpt>
<trkpt lat="46.5963258315" lon="6.3290170021"><ele></ele><time>2015-10-10T5:5:32Z</time></trkpt>
<trkpt lat="46.5962948184" lon="6.3288920280"><ele></ele><time>2015-10-10T5:5:35Z</time></trkpt>
<trkpt lat="46.5962060541" lon="6.3285564166"><ele></ele><time>2015-10-10T5:5:38Z</time></trkpt>
<trkpt lat="46.5961492248" lon="6.3282265048"><ele></ele><time>2015-10-10T5:5:41Z</time></trkpt>
<trkpt lat="46.5960582811" lon="6.3279893808"><ele></ele><time>2015-10-10T5:5:44Z</time></trkpt>
<trkpt lat="46.5958592948" lon="6.3278503250"><ele></ele><time>2015-10-10T5:5:47Z</time></trkpt>
<trkpt lat="46.5955892298" lon="6.3278514147"><ele></ele><time>2015-10-10T5:5:50Z</time></trkpt>
<trkpt lat="46.5954641718" lon="6.3276342396"><ele></ele><time>2015-10-10T5:5:53Z</time></trkpt>
<trkpt lat="46.5953555424" lon="6.3273125421"><ele></ele><time>2015-10-10T5:5:56Z</time></trkpt>
<trkpt lat="46.5953531116" lon="6.3271053415"><ele></ele><time>2015-10-10T5:5:59Z</time></trkpt>
<trkpt lat="46.5953536145" lon="6.3270816207"><ele></ele><time>2015-10-10T5:6:2Z</time></trkpt>
<trkpt lat="46.5953557938" lon="6.3268170040"><ele></ele><time>2015-10-10T5:6:5Z</time></trkpt>
<trkpt lat="46.5954778343" lon="6.3265050296"><ele></ele><time>2015-10-10T5:6:8Z</time></trkpt>
<trkpt lat="46.5956184827" lon="6.3262435142"><ele></ele><time>2015-10-10T5:6:11Z</time></trkpt>
<trkpt lat="46.5956080053" lon="6.3259849325"><ele></ele><time>2015-10-10T5:6:14Z</time></trkpt>
<trkpt lat="46.5954549517" lon="6.3257966749"><ele></ele><time>2015-10-10T5:6:17Z</time></trkpt>
<trkpt lat="46.5952428896" lon="6.3256105967"><ele></ele><time>2015-10-10T5:6:20Z</time></trkpt>
<trkpt lat="46.5951370262" lon="6.3253190741"><ele></ele><time>2015-10-10T5:6:23Z</time></trkpt>
<trkpt lat="46.5951081924" lon="6.3250050042"><ele></ele><time>2015-10-10T5:6:26Z</time></trkpt>
<trkpt lat="46.5952324122" lon="6.3247923553"><ele></ele><time>2015-10-10T5:6:29Z</time></trkpt>
<trkpt lat="46.5954191610" lon="6.3247801177"><ele></ele><time>2015-10-10T5:6:32Z</time></trkpt>
<trkpt lat="46.5954391100" lon="6.3247837219"><ele></ele><time>2015-10-10T5:6:35Z</time></trkpt>
<trkpt lat="46.5954443067" lon="6.3247972168"><ele></ele><time>2015-10-10T5:6:38Z</time></trkpt>
<trkpt lat="46.5954476595" lon="6.3248124719"><ele></ele><time>2015-10-10T5:6:41Z</time></trkpt>
<trkpt lat="46.5954394452" lon="6.3248169981"><ele></ele><time>2015-10-10T5:6:44Z</time></trkpt>
<trkpt lat="46.5954347514" lon="6.3248173334"><ele></ele><time>2015-10-10T5:6:47Z</time></trkpt>
<trkpt lat="46.5954384394" lon="6.3248309121"><ele></ele><time>2015-10-10T5:6:50Z</time></trkpt>
<trkpt lat="46.5954455640" lon="6.3248313311"><ele></ele><time>2015-10-10T5:6:53Z</time></trkpt>
<trkpt lat="46.5954489168" lon="6.3248350192"><ele></ele><time>2015-10-10T5:6:56Z</time></trkpt>
<trkpt lat="46.5954541136" lon="6.3248338457"><ele></ele><time>2015-10-10T5:6:59Z</time></trkpt>
<trkpt lat="46.5954567958" lon="6.3248217758"><ele></ele><time>2015-10-10T5:7:2Z</time></trkpt>
<trkpt lat="46.5954533592" lon="6.3248203509"><ele></ele><time>2015-10-10T5:7:5Z</time></trkpt>
<trkpt lat="46.5954536106" lon="6.3248258829"><ele></ele><time>2015-10-10T5:7:8Z</time></trkpt>
<trkpt lat="46.5954566281" lon="6.3248231169"><ele></ele><time>2015-10-10T5:7:11Z</time></trkpt>
<trkpt lat="46.5954553708" lon="6.3248235360"><ele></ele><time>2015-10-10T5:7:14Z</time></trkpt>
<trkpt lat="46.5954557899" lon="6.3248204347"><ele></ele><time>2015-10-10T5:7:17Z</time></trkpt>
<trkpt lat="46.5954519343" lon="6.3248118851"><ele></ele><time>2015-10-10T5:7:20Z</time></trkpt>
<trkpt lat="46.5954453126" lon="6.3248081971"><ele></ele><time>2015-10-10T5:7:23Z</time></trkpt>
<trkpt lat="46.5954445582" lon="6.3248143997"><ele></ele><time>2015-10-10T5:7:26Z</time></trkpt>
<trkpt lat="46.5954450611" lon="6.3248145673"><ele></ele><time>2015-10-10T5:7:29Z</time></trkpt>
<trkpt lat="46.5955573786" lon="6.3249762543"><ele></ele><time>2015-10-10T5:7:32Z</time></trkpt>
<trkpt lat="46.5957253519" lon="6.3251733966"><ele></ele><time>2015-10-10T5:7:35Z</time></trkpt>
<trkpt lat="46.5958740469" lon="6.3253358379"><ele></ele><time>2015-10-10T5:7:38Z</time></trkpt>
<trkpt lat="46.5962579381" lon="6.3255839422"><ele></ele><time>2015-10-10T5:7:41Z</time></trkpt>
<trkpt lat="46.5966097265" lon="6.3257047255"><ele></ele><time>2015-10-10T5:7:44Z</time></trkpt>
<trkpt lat="46.5969705675" lon="6.3257394265"><ele></ele><time>2015-10-10T5:7:47Z</time></trkpt>
<trkpt lat="46.5971763432" lon="6.3257266860"><ele></ele><time>2015-10-10T5:7:50Z</time></trkpt>
<trkpt lat="46.5973915067" lon="6.3257635664"><ele></ele><time>2015-10-10T5:7:53Z</time></trkpt>
<trkpt lat="46.5976010542" lon="6.3259585295"><ele></ele><time>2015-10-10T5:7:56Z</time></trkpt>
<trkpt lat="46.5976553690" lon="6.3260368165"><ele></ele><time>2015-10-10T5:7:59Z</time></trkpt>
<trkpt lat="46.5978166368" lon="6.3262132555"><ele></ele><time>2015-10-10T5:8:2Z</time></trkpt>
<trkpt lat="46.5979450475" lon="6.3262889441"><ele></ele><time>2015-10-10T5:8:5Z</time></trkpt>
<trkpt lat="46.5979712829" lon="6.3262962364"><ele></ele><time>2015-10-10T5:8:8Z</time></trkpt>
<trkpt lat="46.5981332213" lon="6.3263507187"><ele></ele><time>2015-10-10T5:8:11Z</time></trkpt>
<trkpt lat="46.5983152762" lon="6.3264523912"><ele></ele><time>2015-10-10T5:8:14Z</time></trkpt>
<trkpt lat="46.5984403342" lon="6.3264592644"><ele></ele><time>2015-10-10T5:8:17Z</time></trkpt>
<trkpt lat="46.5985905379" lon="6.3262910396"><ele></ele><time>2015-10-10T5:8:20Z</time></trkpt>
<trkpt lat="46.5987499617" lon="6.3261746988"><ele></ele><time>2015-10-10T5:8:23Z</time></trkpt>
<trkpt lat="46.5989338607" lon="6.3262309413"><ele></ele><time>2015-10-10T5:8:26Z</time></trkpt>
<trkpt lat="46.5990072861" lon="6.3262601942"><ele></ele><time>2015-10-10T5:8:29Z</time></trkpt>
<trkpt lat="46.5991803724" lon="6.3264083024"><ele></ele><time>2015-10-10T5:8:32Z</time></trkpt>
<trkpt lat="46.5994040854" lon="6.3266628608"><ele></ele><time>2015-10-10T5:8:35Z</time></trkpt>
<trkpt lat="46.5994636808" lon="6.3267297484"><ele></ele><time>2015-10-10T5:8:38Z</time></trkpt>
<trkpt lat="46.5995441470" lon="6.3268252183"><ele></ele><time>2015-10-10T5:8:41Z</time></trkpt>
<trkpt lat="46.5998140443" lon="6.3271272182"><ele></ele><time>2015-10-10T5:8:44Z</time></trkpt>
<trkpt lat="46.6000598017" lon="6.3271630928"><ele></ele><time>2015-10-10T5:8:47Z</time></trkpt>
<trkpt lat="46.6001038067" lon="6.3271661103"><ele></ele><time>2015-10-10T5:8:50Z</time></trkpt>
<trkpt lat="46.6003120132" lon="6.3270644378"><ele></ele><time>2015-10-10T5:8:53Z</time></trkpt>
<trkpt lat="46.6005106643" lon="6.3269624300"><ele></ele><time>2015-10-10T5:8:56Z</time></trkpt>
<trkpt lat="46.6005615424" lon="6.3269183412"><ele></ele><time>2015-10-10T5:8:59Z</time></trkpt>
<trkpt lat="46.6006702557" lon="6.3267528825"><ele></ele><time>2015-10-10T5:9:2Z</time></trkpt>
<trkpt lat="46.6008091439" lon="6.3265783712"><ele></ele><time>2015-10-10T5:9:5Z</time></trkpt>
<trkpt lat="46.6008918732" lon="6.3265176024"><ele></ele><time>2015-10-10T5:9:8Z</time></trkpt>
<trkpt lat="46.6009515524" lon="6.3263973221"><ele></ele><time>2015-10-10T5:9:11Z</time></trkpt>
<trkpt lat="46.6010176018" lon="6.3260534126"><ele></ele><time>2015-10-10T5:9:14Z</time></trkpt>
<trkpt lat="46.6009526420" lon="6.3257868681"><ele></ele><time>2015-10-10T5:9:17Z</time></trkpt>
<trkpt lat="46.6008357983" lon="6.3254324812"><ele></ele><time>2015-10-10T5:9:20Z</time></trkpt>
<trkpt lat="46.6007922962" lon="6.3250644319"><ele></ele><time>2015-10-10T5:9:23Z</time></trkpt>
<trkpt lat="46.6007024422" lon="6.3248307444"><ele></ele><time>2015-10-10T5:9:26Z</time></trkpt>
<trkpt lat="46.6004755441" lon="6.3245851547"><ele></ele><time>2015-10-10T5:9:29Z</time></trkpt>
<trkpt lat="46.6002400964" lon="6.3244233839"><ele></ele><time>2015-10-10T5:9:32Z</time></trkpt>
<trkpt lat="46.6000717878" lon="6.3242480345"><ele></ele><time>2015-10-10T5:9:35Z</time></trkpt>
<trkpt lat="46.6000572871" lon="6.3239775505"><ele></ele><time>2015-10-10T5:9:38Z</time></trkpt>
<trkpt lat="46.6001099255" lon="6.3237776421"><ele></ele><time>2015-10-10T5:9:41Z</time></trkpt>
<trkpt lat="46.6000695247" lon="6.3235514984"><ele></ele><time>2015-10-10T5:9:44Z</time></trkpt>
<trkpt lat="46.5999532677" lon="6.3233100157"><ele></ele><time>2015-10-10T5:9:47Z</time></trkpt>
<trkpt lat="46.5998030640" lon="6.3231020607"><ele></ele><time>2015-10-10T5:9:50Z</time></trkpt>
<trkpt lat="46.5996974520" lon="6.3228623383"><ele></ele><time>2015-10-10T5:9:53Z</time></trkpt>
<trkpt lat="46.5996670257" lon="6.3224621862"><ele></ele><time>2015-10-10T5:9:56Z</time></trkpt>
<trkpt lat="46.5996875614" lon="6.3221715018"><ele></ele><time>2015-10-10T5:9:59Z</time></trkpt>
<trkpt lat="46.5997738112" lon="6.3219236489"><ele></ele><time>2015-10-10T5:10:2Z</time></trkpt>
<trkpt lat="46.5998415370" lon="6.3216680009"><ele></ele><time>2015-10-10T5:10:5Z</time></trkpt>
<trkpt lat="46.5998368431" lon="6.3214643206"><ele></ele><time>2015-10-10T5:10:8Z</time></trkpt>
<trkpt lat="46.5997831989" lon="6.3212154619"><ele></ele><time>2015-10-10T5:10:11Z</time></trkpt>
<trkpt lat="46.5997557901" lon="6.3211161364"><ele></ele><time>2015-10-10T5:10:14Z</time></trkpt>
<trkpt lat="46.5997347515" lon="6.3211147953"><ele></ele><time>2015-10-10T5:10:17Z</time></trkpt>
<trkpt lat="46.5995953605" lon="6.3209790923"><ele></ele><time>2015-10-10T5:10:20Z</time></trkpt>
<trkpt lat="46.5994735714" lon="6.3207379449"><ele></ele><time>2015-10-10T5:10:23Z</time></trkpt>
<trkpt lat="46.5994028281" lon="6.3204480149"><ele></ele><time>2015-10-10T5:10:26Z</time></trkpt>
<trkpt lat="46.5993955359" lon="6.3201651257"><ele></ele><time>2015-10-10T5:10:29Z</time></trkpt>
<trkpt lat="46.5994007327" lon="6.3198113255"><ele></ele><time>2015-10-10T5:10:32Z</time></trkpt>
<trkpt lat="46.5993038379" lon="6.3195222337"><ele></ele><time>2015-10-10T5:10:35Z</time></trkpt>
<trkpt lat="46.5992283169" lon="6.3192195632"><ele></ele><time>2015-10-10T5:10:38Z</time></trkpt>
<trkpt lat="46.5992244612" lon="6.3188182376"><ele></ele><time>2015-10-10T5:10:41Z</time></trkpt>
<trkpt lat="46.5991493594" lon="6.3185876515"><ele></ele><time>2015-10-10T5:10:44Z</time></trkpt>
<trkpt lat="46.5990139917" lon="6.3183984719"><ele></ele><time>2015-10-10T5:10:47Z</time></trkpt>
<trkpt lat="46.5989807993" lon="6.3183181733"><ele></ele><time>2015-10-10T5:10:50Z</time></trkpt>
<trkpt lat="46.5989686456" lon="6.3183118030"><ele></ele><time>2015-10-10T5:10:53Z</time></trkpt>
<trkpt lat="46.5989734232" lon="6.3183362782"><ele></ele><time>2015-10-10T5:10:56Z</time></trkpt>
<trkpt lat="46.5989835653" lon="6.3183302432"><ele></ele><time>2015-10-10T5:10:59Z</time></trkpt>
<trkpt lat="46.5989802964" lon="6.3183366973"><ele></ele><time>2015-10-10T5:11:2Z</time></trkpt>
<trkpt lat="46.5989724174" lon="6.3183269743"><ele></ele><time>2015-10-10T5:11:5Z</time></trkpt>
<trkpt lat="46.5989819728" lon="6.3183112163"><ele></ele><time>2015-10-10T5:11:8Z</time></trkpt>
<trkpt lat="46.5989781171" lon="6.3183043431"><ele></ele><time>2015-10-10T5:11:11Z</time></trkpt>
<trkpt lat="46.5989747643" lon="6.3183224481"><ele></ele><time>2015-10-10T5:11:14Z</time></trkpt>
<trkpt lat="46.5989776980" lon="6.3183293212"><ele></ele><time>2015-10-10T5:11:17Z</time></trkpt>
<trkpt lat="46.5989799611" lon="6.3183231186"><ele></ele><time>2015-10-10T5:11:20Z</time></trkpt>
<trkpt lat="46.5989836492" lon="6.3183165807"><ele></ele><time>2015-10-10T5:11:23Z</time></trkpt>
<trkpt lat="46.5989792068" lon="6.3183165807"><ele></ele><time>2015-10-10T5:11:26Z</time></trkpt>
<trkpt lat="46.5989807155" lon="6.3183203526"><ele></ele><time>2015-10-10T5:11:29Z</time></trkpt>
<trkpt lat="46.5989899356" lon="6.3183138985"><ele></ele><time>2015-10-10T5:11:32Z</time></trkpt>
<trkpt lat="46.5989943780" lon="6.3183195144"><ele></ele><time>2015-10-10T5:11:35Z</time></trkpt>
<trkpt lat="46.5989910252" lon="6.3183164969"><ele></ele><time>2015-10-10T5:11:38Z</time></trkpt>
<trkpt lat="46.5989900194" lon="6.3183119707"><ele></ele><time>2015-10-10T5:11:41Z</time></trkpt>
<trkpt lat="46.5989885107" lon="6.3183126412"><ele></ele><time>2015-10-10T5:11:44Z</time></trkpt>
<trkpt lat="46.5989929531" lon="6.3183001522"><ele></ele><time>2015-10-10T5:11:47Z</time></trkpt>
<trkpt lat="46.5989919472" lon="6.3183093723"><ele></ele><time>2015-10-10T5:11:50Z</time></trkpt>
<trkpt lat="46.5989972278" lon="6.3183166645"><ele></ele><time>2015-10-10T5:11:53Z</time></trkpt>
<trkpt lat="46.5989935398" lon="6.3183207717"><ele></ele><time>2015-10-10T5:11:56Z</time></trkpt>
<trkpt lat="46.5989900194" lon="6.3183235377"><ele></ele><time>2015-10-10T5:11:59Z</time></trkpt>
<trkpt lat="46.5989875887" lon="6.3183131441"><ele></ele><time>2015-10-10T5:12:2Z</time></trkpt>
<trkpt lat="46.5989906061" lon="6.3183095399"><ele></ele><time>2015-10-10T5:12:5Z</time></trkpt>
<trkpt lat="46.5989875887" lon="6.3183057681"><ele></ele><time>2015-10-10T5:12:8Z</time></trkpt>
<trkpt lat="46.5989797097" lon="6.3183082826"><ele></ele><time>2015-10-10T5:12:11Z</time></trkpt>
<trkpt lat="46.5989849903" lon="6.3183077797"><ele></ele><time>2015-10-10T5:12:14Z</time></trkpt>
<trkpt lat="46.5989893489" lon="6.3183085341"><ele></ele><time>2015-10-10T5:12:17Z</time></trkpt>
<trkpt lat="46.5989842359" lon="6.3183092047"><ele></ele><time>2015-10-10T5:12:20Z</time></trkpt>
<trkpt lat="46.5989787877" lon="6.3183005713"><ele></ele><time>2015-10-10T5:12:23Z</time></trkpt>
<trkpt lat="46.5989810508" lon="6.3183014095"><ele></ele><time>2015-10-10T5:12:26Z</time></trkpt>
<trkpt lat="46.5989824757" lon="6.3183106296"><ele></ele><time>2015-10-10T5:12:29Z</time></trkpt>
<trkpt lat="46.5989840683" lon="6.3183119707"><ele></ele><time>2015-10-10T5:12:32Z</time></trkpt>
<trkpt lat="46.5989839844" lon="6.3183194306"><ele></ele><time>2015-10-10T5:12:35Z</time></trkpt>
<trkpt lat="46.5989940427" lon="6.3183162455"><ele></ele><time>2015-10-10T5:12:38Z</time></trkpt>
<trkpt lat="46.5989887621" lon="6.3183061872"><ele></ele><time>2015-10-10T5:12:41Z</time></trkpt>
<trkpt lat="46.5989847388" lon="6.3183117192"><ele></ele><time>2015-10-10T5:12:44Z</time></trkpt>
<trkpt lat="46.5989872534" lon="6.3183123898"><ele></ele><time>2015-10-10T5:12:47Z</time></trkpt>
<trkpt lat="46.5990900155" lon="6.3184517808"><ele></ele><time>2015-10-10T5:12:50Z</time></trkpt>
<trkpt lat="46.5991462581" lon="6.3185524475"><ele></ele><time>2015-10-10T5:12:53Z</time></trkpt>
<trkpt lat="46.5993189253" lon="6.3185501006"><ele></ele><time>2015-10-10T5:12:56Z</time></trkpt>
<trkpt lat="46.5993778501" lon="6.3184860628"><ele></ele><time>2015-10-10T5:12:59Z</time></trkpt>
<trkpt lat="46.5994468331" lon="6.3184261322"><ele></ele><time>2015-10-10T5:13:2Z</time></trkpt>
<trkpt lat="46.5995842125" lon="6.3185210153"><ele></ele><time>2015-10-10T5:13:5Z</time></trkpt>
<trkpt lat="46.5997156408" lon="6.3187110331"><ele></ele><time>2015-10-10T5:13:8Z</time></trkpt>
<trkpt lat="46.5999541897" lon="6.3190440461"><ele></ele><time>2015-10-10T5:13:11Z</time></trkpt>
<trkpt lat="46.6002307925" lon="6.3191907294"><ele></ele><time>2015-10-10T5:13:14Z</time></trkpt>
<trkpt lat="46.6005933098" lon="6.3191603869"><ele></ele><time>2015-10-10T5:13:17Z</time></trkpt>
<trkpt lat="46.6009044461" lon="6.3190870453"><ele></ele><time>2015-10-10T5:13:20Z</time></trkpt>
<trkpt lat="46.6010398138" lon="6.3192569464"><ele></ele><time>2015-10-10T5:13:23Z</time></trkpt>
<trkpt lat="46.6012080386" lon="6.3193819206"><ele></ele><time>2015-10-10T5:13:26Z</time></trkpt>
<trkpt lat="46.6014734097" lon="6.3193746284"><ele></ele><time>2015-10-10T5:13:29Z</time></trkpt>
<trkpt lat="46.6016542073" lon="6.3194173761"><ele></ele><time>2015-10-10T5:13:32Z</time></trkpt>
<trkpt lat="46.6018623300" lon="6.3195365667"><ele></ele><time>2015-10-10T5:13:35Z</time></trkpt>
<trkpt lat="46.6020727996" lon="6.3195565995"><ele></ele><time>2015-10-10T5:13:38Z</time></trkpt>
<trkpt lat="46.6024424415" lon="6.3194567710"><ele></ele><time>2015-10-10T5:13:41Z</time></trkpt>
<trkpt lat="46.6025977582" lon="6.3194123469"><ele></ele><time>2015-10-10T5:13:44Z</time></trkpt>
<trkpt lat="46.6027715150" lon="6.3194472156"><ele></ele><time>2015-10-10T5:13:47Z</time></trkpt>
<trkpt lat="46.6028555855" lon="6.3194981776"><ele></ele><time>2015-10-10T5:13:50Z</time></trkpt>
<trkpt lat="46.6029430088" lon="6.3195477147"><ele></ele><time>2015-10-10T5:13:53Z</time></trkpt>
<trkpt lat="46.6033745091" lon="6.3197866827"><ele></ele><time>2015-10-10T5:13:56Z</time></trkpt>
<trkpt lat="46.6035382915" lon="6.3199803885"><ele></ele><time>2015-10-10T5:13:59Z</time></trkpt>
<trkpt lat="46.6035652813" lon="6.3198565040"><ele></ele><time>2015-10-10T5:14:2Z</time></trkpt>
<trkpt lat="46.6035326757" lon="6.3198202942"><ele></ele><time>2015-10-10T5:14:5Z</time></trkpt>
<trkpt lat="46.6031834856" lon="6.3193419389"><ele></ele><time>2015-10-10T5:14:8Z</time></trkpt>
<trkpt lat="46.6028228123" lon="6.3186504319"><ele></ele><time>2015-10-10T5:14:11Z</time></trkpt>
<trkpt lat="46.6026819963" lon="6.3183423970"><ele></ele><time>2015-10-10T5:14:14Z</time></trkpt>
<trkpt lat="46.6025692597" lon="6.3180270698"><ele></ele><time>2015-10-10T5:14:17Z</time></trkpt>
<trkpt lat="46.6025002766" lon="6.3177673984"><ele></ele><time>2015-10-10T5:14:20Z</time></trkpt>
<trkpt lat="46.6023045592" lon="6.3168329000"><ele></ele><time>2015-10-10T5:14:23Z</time></trkpt>
<trkpt lat="46.6021520086" lon="6.3161144033"><ele></ele><time>2015-10-10T5:14:26Z</time></trkpt>
<trkpt lat="46.6022002883" lon="6.3156022690"><ele></ele><time>2015-10-10T5:14:29Z</time></trkpt>
<trkpt lat="46.6023445409" lon="6.3151918910"><ele></ele><time>2015-10-10T5:14:32Z</time></trkpt>
<trkpt lat="46.6023572814" lon="6.3151105028"><ele></ele><time>2015-10-10T5:14:35Z</time></trkpt>
<trkpt lat="46.6023328900" lon="6.3149758056"><ele></ele><time>2015-10-10T5:14:38Z</time></trkpt>
<trkpt lat="46.6023091692" lon="6.3148911484"><ele></ele><time>2015-10-10T5:14:41Z</time></trkpt>
<trkpt lat="46.6023131087" lon="6.3148357440"><ele></ele><time>2015-10-10T5:14:44Z</time></trkpt>
<trkpt lat="46.6023193114" lon="6.3148378395"><ele></ele><time>2015-10-10T5:14:47Z</time></trkpt>
<trkpt lat="46.6023140308" lon="6.3148459699"><ele></ele><time>2015-10-10T5:14:50Z</time></trkpt>
<trkpt lat="46.6022949200" lon="6.3148312178"><ele></ele><time>2015-10-10T5:14:53Z</time></trkpt>
<trkpt lat="46.6021824349" lon="6.3146243524"><ele></ele><time>2015-10-10T5:14:56Z</time></trkpt>
<trkpt lat="46.6020883899" lon="6.3144742325"><ele></ele><time>2015-10-10T5:14:59Z</time></trkpt>
<trkpt lat="46.6020546108" lon="6.3144586422"><ele></ele><time>2015-10-10T5:15:2Z</time></trkpt>
<trkpt lat="46.6020394396" lon="6.3144684490"><ele></ele><time>2015-10-10T5:15:5Z</time></trkpt>
<trkpt lat="46.6020329855" lon="6.3144680299"><ele></ele><time>2015-10-10T5:15:8Z</time></trkpt>
<trkpt lat="46.6020261124" lon="6.3144592289"><ele></ele><time>2015-10-10T5:15:11Z</time></trkpt>
<trkpt lat="46.6019610688" lon="6.3143589813"><ele></ele><time>2015-10-10T5:15:14Z</time></trkpt>
<trkpt lat="46.6018737294" lon="6.3142138906"><ele></ele><time>2015-10-10T5:15:17Z</time></trkpt>
<trkpt lat="46.6018322390" lon="6.3141300716"><ele></ele><time>2015-10-10T5:15:20Z</time></trkpt>
<trkpt lat="46.6016401257" lon="6.3138323463"><ele></ele><time>2015-10-10T5:15:23Z</time></trkpt>
<trkpt lat="46.6014834680" lon="6.3136368804"><ele></ele><time>2015-10-10T5:15:26Z</time></trkpt>
<trkpt lat="46.6013810411" lon="6.3134473655"><ele></ele><time>2015-10-10T5:15:29Z</time></trkpt>
<trkpt lat="46.6011846531" lon="6.3131008577"><ele></ele><time>2015-10-10T5:15:32Z</time></trkpt>
<trkpt lat="46.6010010894" lon="6.3127561938"><ele></ele><time>2015-10-10T5:15:35Z</time></trkpt>
<trkpt lat="46.6008401569" lon="6.3124234322"><ele></ele><time>2015-10-10T5:15:38Z</time></trkpt>
<trkpt lat="46.6006750334" lon="6.3121143915"><ele></ele><time>2015-10-10T5:15:41Z</time></trkpt>
<trkpt lat="46.6005726904" lon="6.3118697237"><ele></ele><time>2015-10-10T5:15:44Z</time></trkpt>
<trkpt lat="46.6006049607" lon="6.3116688933"><ele></ele><time>2015-10-10T5:15:47Z</time></trkpt>
<trkpt lat="46.6005416773" lon="6.3114978187"><ele></ele><time>2015-10-10T5:15:50Z</time></trkpt>
<trkpt lat="46.6004249174" lon="6.3113748562"><ele></ele><time>2015-10-10T5:15:53Z</time></trkpt>
<trkpt lat="46.6004228219" lon="6.3113290071"><ele></ele><time>2015-10-10T5:15:56Z</time></trkpt>
<trkpt lat="46.6004294436" lon="6.3113284204"><ele></ele><time>2015-10-10T5:15:59Z</time></trkpt>
<trkpt lat="46.6004295275" lon="6.3113277499"><ele></ele><time>2015-10-10T5:16:2Z</time></trkpt>
<trkpt lat="46.6004798189" lon="6.3112990838"><ele></ele><time>2015-10-10T5:16:5Z</time></trkpt>
<trkpt lat="46.6005430184" lon="6.3114041090"><ele></ele><time>2015-10-10T5:16:8Z</time></trkpt>
<trkpt lat="46.6007221397" lon="6.3115191925"><ele></ele><time>2015-10-10T5:16:11Z</time></trkpt>
<trkpt lat="46.6007662285" lon="6.3115528040"><ele></ele><time>2015-10-10T5:16:14Z</time></trkpt>
<trkpt lat="46.6010014247" lon="6.3115789555"><ele></ele><time>2015-10-10T5:16:17Z</time></trkpt>
<trkpt lat="46.6010256484" lon="6.3115855772"><ele></ele><time>2015-10-10T5:16:20Z</time></trkpt>
<trkpt lat="46.6010659654" lon="6.3116293307"><ele></ele><time>2015-10-10T5:16:23Z</time></trkpt>
<trkpt lat="46.6011725832" lon="6.3116377126"><ele></ele><time>2015-10-10T5:16:26Z</time></trkpt>
<trkpt lat="46.6013068613" lon="6.3115069550"><ele></ele><time>2015-10-10T5:16:29Z</time></trkpt>
<trkpt lat="46.6012982279" lon="6.3115064520"><ele></ele><time>2015-10-10T5:16:32Z</time></trkpt>
<trkpt lat="46.6012778599" lon="6.3112850860"><ele></ele><time>2015-10-10T5:16:35Z</time></trkpt>
<trkpt lat="46.6012038477" lon="6.3111594412"><ele></ele><time>2015-10-10T5:16:38Z</time></trkpt>
<trkpt lat="46.6012107208" lon="6.3110630494"><ele></ele><time>2015-10-10T5:16:41Z</time></trkpt>
<trkpt lat="46.6012499481" lon="6.3109354768"><ele></ele><time>2015-10-10T5:16:44Z</time></trkpt>
<trkpt lat="46.6012372915" lon="6.3107784837"><ele></ele><time>2015-10-10T5:16:47Z</time></trkpt>
<trkpt lat="46.6011478566" lon="6.3105093408"><ele></ele><time>2015-10-10T5:16:50Z</time></trkpt>
<trkpt lat="46.6011102218" lon="6.3104548585"><ele></ele><time>2015-10-10T5:16:53Z</time></trkpt>
<trkpt lat="46.6010435019" lon="6.3102282118"><ele></ele><time>2015-10-10T5:16:56Z</time></trkpt>
<trkpt lat="46.6010290850" lon="6.3101587258"><ele></ele><time>2015-10-10T5:16:59Z</time></trkpt>
<trkpt lat="46.6009642929" lon="6.3099925965"><ele></ele><time>2015-10-10T5:17:2Z</time></trkpt>
<trkpt lat="46.6009376384" lon="6.3099522796"><ele></ele><time>2015-10-10T5:17:5Z</time></trkpt>
<trkpt lat="46.6009207070" lon="6.3099220209"><ele></ele><time>2015-10-10T5:17:8Z</time></trkpt>
<trkpt lat="46.6009660531" lon="6.3097751699"><ele></ele><time>2015-10-10T5:17:11Z</time></trkpt>
<trkpt lat="46.6010149196" lon="6.3096698094"><ele></ele><time>2015-10-10T5:17:14Z</time></trkpt>
<trkpt lat="46.6010432504" lon="6.3096244633"><ele></ele><time>2015-10-10T5:17:17Z</time></trkpt>
<trkpt lat="46.6010781191" lon="6.3095924444"><ele></ele><time>2015-10-10T5:17:20Z</time></trkpt>
<trkpt lat="46.6012967192" lon="6.3094930351"><ele></ele><time>2015-10-10T5:17:23Z</time></trkpt>
<trkpt lat="46.6013124771" lon="6.3094830606"><ele></ele><time>2015-10-10T5:17:26Z</time></trkpt>
<trkpt lat="46.6013172548" lon="6.3094747625"><ele></ele><time>2015-10-10T5:17:29Z</time></trkpt>
<trkpt lat="46.6013245471" lon="6.3094861619"><ele></ele><time>2015-10-10T5:17:32Z</time></trkpt>
<trkpt lat="46.6013966314" lon="6.3094463479"><ele></ele><time>2015-10-10T5:17:35Z</time></trkpt>
<trkpt lat="46.6015301552" lon="6.3093554042"><ele></ele><time>2015-10-10T5:17:38Z</time></trkpt>
<trkpt lat="46.6016847175" lon="6.3094938733"><ele></ele><time>2015-10-10T5:17:41Z</time></trkpt>
<trkpt lat="46.6019652598" lon="6.3098683767"><ele></ele><time>2015-10-10T5:17:44Z</time></trkpt>
<trkpt lat="46.6022421140" lon="6.3103665132"><ele></ele><time>2015-10-10T5:17:47Z</time></trkpt>
<trkpt lat="46.6023721173" lon="6.3105142862"><ele></ele><time>2015-10-10T5:17:50Z</time></trkpt>
<trkpt lat="46.6024503205" lon="6.3106100075"><ele></ele><time>2015-10-10T5:17:53Z</time></trkpt>
<trkpt lat="46.6028506402" lon="6.3109645620"><ele></ele><time>2015-10-10T5:17:56Z</time></trkpt>
<trkpt lat="46.6030673962" lon="6.3112649694"><ele></ele><time>2015-10-10T5:17:59Z</time></trkpt>
<trkpt lat="46.6031321045" lon="6.3114249799"><ele></ele><time>2015-10-10T5:18:2Z</time></trkpt>
<trkpt lat="46.6033099685" lon="6.3116269838"><ele></ele><time>2015-10-10T5:18:5Z</time></trkpt>
<trkpt lat="46.6035013273" lon="6.3116774429"><ele></ele><time>2015-10-10T5:18:8Z</time></trkpt>
<trkpt lat="46.6038209293" lon="6.3118772674"><ele></ele><time>2015-10-10T5:18:11Z</time></trkpt>
<trkpt lat="46.6039561294" lon="6.3119630981"><ele></ele><time>2015-10-10T5:18:14Z</time></trkpt>
<trkpt lat="46.6042077541" lon="6.3121026568"><ele></ele><time>2015-10-10T5:18:17Z</time></trkpt>
<trkpt lat="46.6045437008" lon="6.3125429582"><ele></ele><time>2015-10-10T5:18:20Z</time></trkpt>
<trkpt lat="46.6045885440" lon="6.3126364164"><ele></ele><time>2015-10-10T5:18:23Z</time></trkpt>
<trkpt lat="46.6047181282" lon="6.3127513323"><ele></ele><time>2015-10-10T5:18:26Z</time></trkpt>
<trkpt lat="46.6049028654" lon="6.3131208066"><ele></ele><time>2015-10-10T5:18:29Z</time></trkpt>
<trkpt lat="46.6051195376" lon="6.3134902809"><ele></ele><time>2015-10-10T5:18:32Z</time></trkpt>
<trkpt lat="46.6054531373" lon="6.3139756769"><ele></ele><time>2015-10-10T5:18:35Z</time></trkpt>
<trkpt lat="46.6057425644" lon="6.3143606577"><ele></ele><time>2015-10-10T5:18:38Z</time></trkpt>
<trkpt lat="46.6060996335" lon="6.3148776535"><ele></ele><time>2015-10-10T5:18:41Z</time></trkpt>
<trkpt lat="46.6061411239" lon="6.3149294537"><ele></ele><time>2015-10-10T5:18:44Z</time></trkpt>
<trkpt lat="46.6062412877" lon="6.3150868658"><ele></ele><time>2015-10-10T5:18:47Z</time></trkpt>
<trkpt lat="46.6063850373" lon="6.3152372371"><ele></ele><time>2015-10-10T5:18:50Z</time></trkpt>
<trkpt lat="46.6065318882" lon="6.3154190406"><ele></ele><time>2015-10-10T5:18:53Z</time></trkpt>
<trkpt lat="46.6068251710" lon="6.3158028480"><ele></ele><time>2015-10-10T5:18:56Z</time></trkpt>
<trkpt lat="46.6069873609" lon="6.3160956278"><ele></ele><time>2015-10-10T5:18:59Z</time></trkpt>
<trkpt lat="46.6073159315" lon="6.3165706303"><ele></ele><time>2015-10-10T5:19:2Z</time></trkpt>
<trkpt lat="46.6075047757" lon="6.3169404399"><ele></ele><time>2015-10-10T5:19:5Z</time></trkpt>
<trkpt lat="46.6077697277" lon="6.3173940685"><ele></ele><time>2015-10-10T5:19:8Z</time></trkpt>
<trkpt lat="46.6080076899" lon="6.3178397343"><ele></ele><time>2015-10-10T5:19:11Z</time></trkpt>
<trkpt lat="46.6081759986" lon="6.3181810454"><ele></ele><time>2015-10-10T5:19:14Z</time></trkpt>
<trkpt lat="46.6084428784" lon="6.3184340112"><ele></ele><time>2015-10-10T5:19:17Z</time></trkpt>
<trkpt lat="46.6084955167" lon="6.3185337558"><ele></ele><time>2015-10-10T5:19:20Z</time></trkpt>
<trkpt lat="46.6085064970" lon="6.3185589015"><ele></ele><time>2015-10-10T5:19:23Z</time></trkpt>
<trkpt lat="46.6085250210" lon="6.3185989670"><ele></ele><time>2015-10-10T5:19:26Z</time></trkpt>
<trkpt lat="46.6085550282" lon="6.3186240289"><ele></ele><time>2015-10-10T5:19:29Z</time></trkpt>
<trkpt lat="46.6085597221" lon="6.3186298963"><ele></ele><time>2015-10-10T5:19:32Z</time></trkpt>
<trkpt lat="46.6087337304" lon="6.3189331535"><ele></ele><time>2015-10-10T5:19:35Z</time></trkpt>
<trkpt lat="46.6087670904" lon="6.3189726323"><ele></ele><time>2015-10-10T5:19:38Z</time></trkpt>
<trkpt lat="46.6089548450" lon="6.3190743048"><ele></ele><time>2015-10-10T5:19:41Z</time></trkpt>
<trkpt lat="46.6092499718" lon="6.3190556131"><ele></ele><time>2015-10-10T5:19:44Z</time></trkpt>
<trkpt lat="46.6095317714" lon="6.3191007916"><ele></ele><time>2015-10-10T5:19:47Z</time></trkpt>
<trkpt lat="46.6097305063" lon="6.3192502409"><ele></ele><time>2015-10-10T5:19:50Z</time></trkpt>
<trkpt lat="46.6098963004" lon="6.3197187893"><ele></ele><time>2015-10-10T5:19:53Z</time></trkpt>
<trkpt lat="46.6102418862" lon="6.3201129064"><ele></ele><time>2015-10-10T5:19:56Z</time></trkpt>
<trkpt lat="46.6103823669" lon="6.3203006610"><ele></ele><time>2015-10-10T5:19:59Z</time></trkpt>
<trkpt lat="46.6105392762" lon="6.3205958717"><ele></ele><time>2015-10-10T5:20:2Z</time></trkpt>
<trkpt lat="46.6109380871" lon="6.3211387675"><ele></ele><time>2015-10-10T5:20:5Z</time></trkpt>
<trkpt lat="46.6111663263" lon="6.3215014525"><ele></ele><time>2015-10-10T5:20:8Z</time></trkpt>
<trkpt lat="46.6111274343" lon="6.3218713459"><ele></ele><time>2015-10-10T5:20:11Z</time></trkpt>
<trkpt lat="46.6109958384" lon="6.3218659814"><ele></ele><time>2015-10-10T5:20:14Z</time></trkpt>
<trkpt lat="46.6107800044" lon="6.3216118421"><ele></ele><time>2015-10-10T5:20:17Z</time></trkpt>
<trkpt lat="46.6105337441" lon="6.3215778954"><ele></ele><time>2015-10-10T5:20:20Z</time></trkpt>
<trkpt lat="46.6103207599" lon="6.3218196295"><ele></ele><time>2015-10-10T5:20:23Z</time></trkpt>
<trkpt lat="46.6102692951" lon="6.3220560830"><ele></ele><time>2015-10-10T5:20:26Z</time></trkpt>
<trkpt lat="46.6102331690" lon="6.3223713264"><ele></ele><time>2015-10-10T5:20:29Z</time></trkpt>
<trkpt lat="46.6103445645" lon="6.3228743244"><ele></ele><time>2015-10-10T5:20:32Z</time></trkpt>
<trkpt lat="46.6108427010" lon="6.3236112613"><ele></ele><time>2015-10-10T5:20:35Z</time></trkpt>
<trkpt lat="46.6109577846" lon="6.3237457909"><ele></ele><time>2015-10-10T5:20:38Z</time></trkpt>
<trkpt lat="46.6111208126" lon="6.3238820806"><ele></ele><time>2015-10-10T5:20:41Z</time></trkpt>
<trkpt lat="46.6112669092" lon="6.3242899440"><ele></ele><time>2015-10-10T5:20:44Z</time></trkpt>
<trkpt lat="46.6113093216" lon="6.3247356936"><ele></ele><time>2015-10-10T5:20:47Z</time></trkpt>
<trkpt lat="46.6113230679" lon="6.3254261110"><ele></ele><time>2015-10-10T5:20:50Z</time></trkpt>
<trkpt lat="46.6114270873" lon="6.3258741237"><ele></ele><time>2015-10-10T5:20:53Z</time></trkpt>
<trkpt lat="46.6118455119" lon="6.3269304112"><ele></ele><time>2015-10-10T5:20:56Z</time></trkpt>
<trkpt lat="46.6120518744" lon="6.3272865582"><ele></ele><time>2015-10-10T5:20:59Z</time></trkpt>
<trkpt lat="46.6121610068" lon="6.3274277095"><ele></ele><time>2015-10-10T5:21:2Z</time></trkpt>
<trkpt lat="46.6128430422" lon="6.3278861996"><ele></ele><time>2015-10-10T5:21:5Z</time></trkpt>
<trkpt lat="46.6136837471" lon="6.3283459470"><ele></ele><time>2015-10-10T5:21:8Z</time></trkpt>
<trkpt lat="46.6140913591" lon="6.3285943028"><ele></ele><time>2015-10-10T5:21:11Z</time></trkpt>
<trkpt lat="46.6142754257" lon="6.3287804648"><ele></ele><time>2015-10-10T5:21:14Z</time></trkpt>
<trkpt lat="46.6144582350" lon="6.3290441595"><ele></ele><time>2015-10-10T5:21:17Z</time></trkpt>
<trkpt lat="46.6144807823" lon="6.3290820457"><ele></ele><time>2015-10-10T5:21:20Z</time></trkpt>
<trkpt lat="46.6147529427" lon="6.3297113590"><ele></ele><time>2015-10-10T5:21:23Z</time></trkpt>
<trkpt lat="46.6151444614" lon="6.3301731180"><ele></ele><time>2015-10-10T5:21:26Z</time></trkpt>
<trkpt lat="46.6153505724" lon="6.3306399900"><ele></ele><time>2015-10-10T5:21:29Z</time></trkpt>
<trkpt lat="46.6158604436" lon="6.3315088581"><ele></ele><time>2015-10-10T5:21:32Z</time></trkpt>
<trkpt lat="46.6159400716" lon="6.3316132966"><ele></ele><time>2015-10-10T5:21:35Z</time></trkpt>
<trkpt lat="46.6167884041" lon="6.3323355652"><ele></ele><time>2015-10-10T5:21:38Z</time></trkpt>
<trkpt lat="46.6172298789" lon="6.3323887903"><ele></ele><time>2015-10-10T5:21:41Z</time></trkpt>
<trkpt lat="46.6176792327" lon="6.3321475592"><ele></ele><time>2015-10-10T5:21:44Z</time></trkpt>
<trkpt lat="46.6178947315" lon="6.3321095891"><ele></ele><time>2015-10-10T5:21:47Z</time></trkpt>
<trkpt lat="46.6180794686" lon="6.3321808353"><ele></ele><time>2015-10-10T5:21:50Z</time></trkpt>
<trkpt lat="46.6182163451" lon="6.3323048875"><ele></ele><time>2015-10-10T5:21:53Z</time></trkpt>
<trkpt lat="46.6183683090" lon="6.3325992599"><ele></ele><time>2015-10-10T5:21:56Z</time></trkpt>
<trkpt lat="46.6185506992" lon="6.3328888547"><ele></ele><time>2015-10-10T5:21:59Z</time></trkpt>
<trkpt lat="46.6187490150" lon="6.3333921041"><ele></ele><time>2015-10-10T5:22:2Z</time></trkpt>
<trkpt lat="46.6187806986" lon="6.3336702995"><ele></ele><time>2015-10-10T5:22:5Z</time></trkpt>
<trkpt lat="46.6189128812" lon="6.3339186553"><ele></ele><time>2015-10-10T5:22:8Z</time></trkpt>
<trkpt lat="46.6189965326" lon="6.3340018876"><ele></ele><time>2015-10-10T5:22:11Z</time></trkpt>
<trkpt lat="46.6193807591" lon="6.3344173785"><ele></ele><time>2015-10-10T5:22:14Z</time></trkpt>
<trkpt lat="46.6194732953" lon="6.3346393313"><ele></ele><time>2015-10-10T5:22:17Z</time></trkpt>
<trkpt lat="46.6197720263" lon="6.3350269943"><ele></ele><time>2015-10-10T5:22:20Z</time></trkpt>
<trkpt lat="46.6199588589" lon="6.3352556527"><ele></ele><time>2015-10-10T5:22:23Z</time></trkpt>
<trkpt lat="46.6201003455" lon="6.3355716504"><ele></ele><time>2015-10-10T5:22:26Z</time></trkpt>
<trkpt lat="46.6203248966" lon="6.3359288871"><ele></ele><time>2015-10-10T5:22:29Z</time></trkpt>
<trkpt lat="46.6205573268" lon="6.3362863753"><ele></ele><time>2015-10-10T5:22:32Z</time></trkpt>
<trkpt lat="46.6207411420" lon="6.3368928060"><ele></ele><time>2015-10-10T5:22:35Z</time></trkpt>
<trkpt lat="46.6208074428" lon="6.3371036947"><ele></ele><time>2015-10-10T5:22:38Z</time></trkpt>
<trkpt lat="46.6210161522" lon="6.3374351151"><ele></ele><time>2015-10-10T5:22:41Z</time></trkpt>
<trkpt lat="46.6212500073" lon="6.3376700599"><ele></ele><time>2015-10-10T5:22:44Z</time></trkpt>
<trkpt lat="46.6214608122" lon="6.3379086088"><ele></ele><time>2015-10-10T5:22:47Z</time></trkpt>
<trkpt lat="46.6218420211" lon="6.3384379260"><ele></ele><time>2015-10-10T5:22:50Z</time></trkpt>
<trkpt lat="46.6222484596" lon="6.3390302751"><ele></ele><time>2015-10-10T5:22:53Z</time></trkpt>
<trkpt lat="46.6224181931" lon="6.3394014258"><ele></ele><time>2015-10-10T5:22:56Z</time></trkpt>
<trkpt lat="46.6226474382" lon="6.3401225209"><ele></ele><time>2015-10-10T5:22:59Z</time></trkpt>
<trkpt lat="46.6229004879" lon="6.3404023089"><ele></ele><time>2015-10-10T5:23:2Z</time></trkpt>
<trkpt lat="46.6233116202" lon="6.3404973596"><ele></ele><time>2015-10-10T5:23:5Z</time></trkpt>
<trkpt lat="46.6234495863" lon="6.3405026402"><ele></ele><time>2015-10-10T5:23:8Z</time></trkpt>
<trkpt lat="46.6239382513" lon="6.3407775667"><ele></ele><time>2015-10-10T5:23:11Z</time></trkpt>
<trkpt lat="46.6242168657" lon="6.3409695122"><ele></ele><time>2015-10-10T5:23:14Z</time></trkpt>
<trkpt lat="46.6244793031" lon="6.3414326962"><ele></ele><time>2015-10-10T5:23:17Z</time></trkpt>
<trkpt lat="46.6246865038" lon="6.3417849038"><ele></ele><time>2015-10-10T5:23:20Z</time></trkpt>
<trkpt lat="46.6249556467" lon="6.3422157336"><ele></ele><time>2015-10-10T5:23:23Z</time></trkpt>
<trkpt lat="46.6250502784" lon="6.3425066695"><ele></ele><time>2015-10-10T5:23:26Z</time></trkpt>
<trkpt lat="46.6252221074" lon="6.3429872878"><ele></ele><time>2015-10-10T5:23:29Z</time></trkpt>
<trkpt lat="46.6253607441" lon="6.3435333688"><ele></ele><time>2015-10-10T5:23:32Z</time></trkpt>
<trkpt lat="46.6254305653" lon="6.3440520409"><ele></ele><time>2015-10-10T5:23:35Z</time></trkpt>
<trkpt lat="46.6254964471" lon="6.3445126265"><ele></ele><time>2015-10-10T5:23:38Z</time></trkpt>
<trkpt lat="46.6256705392" lon="6.3449006248"><ele></ele><time>2015-10-10T5:23:41Z</time></trkpt>
<trkpt lat="46.6259247623" lon="6.3450131938"><ele></ele><time>2015-10-10T5:23:44Z</time></trkpt>
<trkpt lat="46.6262365691" lon="6.3452107552"><ele></ele><time>2015-10-10T5:23:47Z</time></trkpt>
<trkpt lat="46.6267410759" lon="6.3457667269"><ele></ele><time>2015-10-10T5:23:50Z</time></trkpt>
<trkpt lat="46.6274323314" lon="6.3465315755"><ele></ele><time>2015-10-10T5:23:53Z</time></trkpt>
<trkpt lat="46.6278053261" lon="6.3469421212"><ele></ele><time>2015-10-10T5:23:56Z</time></trkpt>
<trkpt lat="46.6279303841" lon="6.3472225796"><ele></ele><time>2015-10-10T5:23:59Z</time></trkpt>
<trkpt lat="46.6280651651" lon="6.3478197902"><ele></ele><time>2015-10-10T5:24:2Z</time></trkpt>
<trkpt lat="46.6282506566" lon="6.3481124863"><ele></ele><time>2015-10-10T5:24:5Z</time></trkpt>
<trkpt lat="46.6286177840" lon="6.3483316731"><ele></ele><time>2015-10-10T5:24:8Z</time></trkpt>
<trkpt lat="46.6288922075" lon="6.3484202698"><ele></ele><time>2015-10-10T5:24:11Z</time></trkpt>
<trkpt lat="46.6291476041" lon="6.3484541327"><ele></ele><time>2015-10-10T5:24:14Z</time></trkpt>
<trkpt lat="46.6294592433" lon="6.3485837169"><ele></ele><time>2015-10-10T5:24:17Z</time></trkpt>
<trkpt lat="46.6298241913" lon="6.3487506006"><ele></ele><time>2015-10-10T5:24:20Z</time></trkpt>
<trkpt lat="46.6298786737" lon="6.3487615809"><ele></ele><time>2015-10-10T5:24:23Z</time></trkpt>
<trkpt lat="46.6300460603" lon="6.3487984613"><ele></ele><time>2015-10-10T5:24:26Z</time></trkpt>
<trkpt lat="46.6301504988" lon="6.3488223497"><ele></ele><time>2015-10-10T5:24:29Z</time></trkpt>
<trkpt lat="46.6303156223" lon="6.3488543686"><ele></ele><time>2015-10-10T5:24:32Z</time></trkpt>
<trkpt lat="46.6303475574" lon="6.3488826156"><ele></ele><time>2015-10-10T5:24:35Z</time></trkpt>
<trkpt lat="46.6303535923" lon="6.3489934243"><ele></ele><time>2015-10-10T5:24:38Z</time></trkpt>
<trkpt lat="46.6304588690" lon="6.3494439516"><ele></ele><time>2015-10-10T5:24:41Z</time></trkpt>
<trkpt lat="46.6306659020" lon="6.3496549241"><ele></ele><time>2015-10-10T5:24:44Z</time></trkpt>
<trkpt lat="46.6307719331" lon="6.3497980032"><ele></ele><time>2015-10-10T5:24:47Z</time></trkpt>
<trkpt lat="46.6309772898" lon="6.3499013521"><ele></ele><time>2015-10-10T5:24:50Z</time></trkpt>
<trkpt lat="46.6311911959" lon="6.3499651384"><ele></ele><time>2015-10-10T5:24:53Z</time></trkpt>
<trkpt lat="46.6314552259" lon="6.3501902763"><ele></ele><time>2015-10-10T5:24:56Z</time></trkpt>
<trkpt lat="46.6315981373" lon="6.3504742552"><ele></ele><time>2015-10-10T5:24:59Z</time></trkpt>
<trkpt lat="46.6318963654" lon="6.3513480686"><ele></ele><time>2015-10-10T5:25:2Z</time></trkpt>
<trkpt lat="46.6322701145" lon="6.3520003483"><ele></ele><time>2015-10-10T5:25:5Z</time></trkpt>
<trkpt lat="46.6328748688" lon="6.3527888339"><ele></ele><time>2015-10-10T5:25:8Z</time></trkpt>
<trkpt lat="46.6333940439" lon="6.3534589671"><ele></ele><time>2015-10-10T5:25:11Z</time></trkpt>
<trkpt lat="46.6337888315" lon="6.3539671618"><ele></ele><time>2015-10-10T5:25:14Z</time></trkpt>
<trkpt lat="46.6338251252" lon="6.3540285174"><ele></ele><time>2015-10-10T5:25:17Z</time></trkpt>
<trkpt lat="46.6339790169" lon="6.3543123286"><ele></ele><time>2015-10-10T5:25:20Z</time></trkpt>
<trkpt lat="46.6341583896" lon="6.3545333594"><ele></ele><time>2015-10-10T5:25:23Z</time></trkpt>
<trkpt lat="46.6345586255" lon="6.3547372911"><ele></ele><time>2015-10-10T5:25:26Z</time></trkpt>
<trkpt lat="46.6353742685" lon="6.3550770935"><ele></ele><time>2015-10-10T5:25:29Z</time></trkpt>
<trkpt lat="46.6356327664" lon="6.3552531973"><ele></ele><time>2015-10-10T5:25:32Z</time></trkpt>
<trkpt lat="46.6360002290" lon="6.3554431312"><ele></ele><time>2015-10-10T5:25:35Z</time></trkpt>
<trkpt lat="46.6364586353" lon="6.3558001164"><ele></ele><time>2015-10-10T5:25:38Z</time></trkpt>
<trkpt lat="46.6372756194" lon="6.3563648053"><ele></ele><time>2015-10-10T5:25:41Z</time></trkpt>
<trkpt lat="46.6373627912" lon="6.3564320281"><ele></ele><time>2015-10-10T5:25:44Z</time></trkpt>
<trkpt lat="46.6376112308" lon="6.3565726765"><ele></ele><time>2015-10-10T5:25:47Z</time></trkpt>
<trkpt lat="46.6377475206" lon="6.3568610139"><ele></ele><time>2015-10-10T5:25:50Z</time></trkpt>
<trkpt lat="46.6376186907" lon="6.3573231082"><ele></ele><time>2015-10-10T5:25:53Z</time></trkpt>
<trkpt lat="46.6371636372" lon="6.3579895534"><ele></ele><time>2015-10-10T5:25:56Z</time></trkpt>
<trkpt lat="46.6370938998" lon="6.3580555189"><ele></ele><time>2015-10-10T5:25:59Z</time></trkpt>
<trkpt lat="46.6367748845" lon="6.3586632907"><ele></ele><time>2015-10-10T5:26:2Z</time></trkpt>
<trkpt lat="46.6365102679" lon="6.3589110598"><ele></ele><time>2015-10-10T5:26:5Z</time></trkpt>
<trkpt lat="46.6361723933" lon="6.3591178413"><ele></ele><time>2015-10-10T5:26:8Z</time></trkpt>
<trkpt lat="46.6356957145" lon="6.3593235333"><ele></ele><time>2015-10-10T5:26:11Z</time></trkpt>
<trkpt lat="46.6349167004" lon="6.3599413633"><ele></ele><time>2015-10-10T5:26:14Z</time></trkpt>
<trkpt lat="46.6348501481" lon="6.3599938340"><ele></ele><time>2015-10-10T5:26:17Z</time></trkpt>
<trkpt lat="46.6347170435" lon="6.3603330497"><ele></ele><time>2015-10-10T5:26:20Z</time></trkpt>
<trkpt lat="46.6348259244" lon="6.3604331296"><ele></ele><time>2015-10-10T5:26:23Z</time></trkpt>
<trkpt lat="46.6352503840" lon="6.3605531584"><ele></ele><time>2015-10-10T5:26:26Z</time></trkpt>
<trkpt lat="46.6354649607" lon="6.3605105784"><ele></ele><time>2015-10-10T5:26:29Z</time></trkpt>
<trkpt lat="46.6357149091" lon="6.3607155159"><ele></ele><time>2015-10-10T5:26:32Z</time></trkpt>
<trkpt lat="46.6357048508" lon="6.3609221298"><ele></ele><time>2015-10-10T5:26:35Z</time></trkpt>
<trkpt lat="46.6357196029" lon="6.3614444900"><ele></ele><time>2015-10-10T5:26:38Z</time></trkpt>
<trkpt lat="46.6358358599" lon="6.3619522657"><ele></ele><time>2015-10-10T5:26:41Z</time></trkpt>
<trkpt lat="46.6359739937" lon="6.3626494724"><ele></ele><time>2015-10-10T5:26:44Z</time></trkpt>
<trkpt lat="46.6359512787" lon="6.3627541624"><ele></ele><time>2015-10-10T5:26:47Z</time></trkpt>
<trkpt lat="46.6358519532" lon="6.3638510182"><ele></ele><time>2015-10-10T5:26:50Z</time></trkpt>
<trkpt lat="46.6358159110" lon="6.3650900312"><ele></ele><time>2015-10-10T5:26:53Z</time></trkpt>
<trkpt lat="46.6356564872" lon="6.3659806084"><ele></ele><time>2015-10-10T5:26:56Z</time></trkpt>
<trkpt lat="46.6356159188" lon="6.3661109470"><ele></ele><time>2015-10-10T5:26:59Z</time></trkpt>
<trkpt lat="46.6353673115" lon="6.3665901404"><ele></ele><time>2015-10-10T5:27:2Z</time></trkpt>
<trkpt lat="46.6347700171" lon="6.3673420809"><ele></ele><time>2015-10-10T5:27:5Z</time></trkpt>
<trkpt lat="46.6344393510" lon="6.3676978089"><ele></ele><time>2015-10-10T5:27:8Z</time></trkpt>
<trkpt lat="46.6343048215" lon="6.3677512016"><ele></ele><time>2015-10-10T5:27:11Z</time></trkpt>
<trkpt lat="46.6341126245" lon="6.3677646127"><ele></ele><time>2015-10-10T5:27:14Z</time></trkpt>
<trkpt lat="46.6339304019" lon="6.3677009102"><ele></ele><time>2015-10-10T5:27:17Z</time></trkpt>
<trkpt lat="46.6336829681" lon="6.3675195258"><ele></ele><time>2015-10-10T5:27:20Z</time></trkpt>
<trkpt lat="46.6332258191" lon="6.3670523185"><ele></ele><time>2015-10-10T5:27:23Z</time></trkpt>
<trkpt lat="46.6329547483" lon="6.3669387437"><ele></ele><time>2015-10-10T5:27:26Z</time></trkpt>
<trkpt lat="46.6328147706" lon="6.3669381570"><ele></ele><time>2015-10-10T5:27:29Z</time></trkpt>
<trkpt lat="46.6320723016" lon="6.3671716768"><ele></ele><time>2015-10-10T5:27:32Z</time></trkpt>
<trkpt lat="46.6318264604" lon="6.3671779633"><ele></ele><time>2015-10-10T5:27:35Z</time></trkpt>
<trkpt lat="46.6313131526" lon="6.3670052122"><ele></ele><time>2015-10-10T5:27:38Z</time></trkpt>
<trkpt lat="46.6311636195" lon="6.3669283502"><ele></ele><time>2015-10-10T5:27:41Z</time></trkpt>
<trkpt lat="46.6307490505" lon="6.3670439366"><ele></ele><time>2015-10-10T5:27:44Z</time></trkpt>
<trkpt lat="46.6302448791" lon="6.3675217051"><ele></ele><time>2015-10-10T5:27:47Z</time></trkpt>
<trkpt lat="46.6300209146" lon="6.3680376112"><ele></ele><time>2015-10-10T5:27:50Z</time></trkpt>
<trkpt lat="46.6296127997" lon="6.3691451959"><ele></ele><time>2015-10-10T5:27:53Z</time></trkpt>
<trkpt lat="46.6290744301" lon="6.3704531919"><ele></ele><time>2015-10-10T5:27:56Z</time></trkpt>
<trkpt lat="46.6289636213" lon="6.3708783220"><ele></ele><time>2015-10-10T5:27:59Z</time></trkpt>
<trkpt lat="46.6288749408" lon="6.3715555798"><ele></ele><time>2015-10-10T5:28:2Z</time></trkpt>
<trkpt lat="46.6287549119" lon="6.3718916941"><ele></ele><time>2015-10-10T5:28:5Z</time></trkpt>
<trkpt lat="46.6285921354" lon="6.3720907643"><ele></ele><time>2015-10-10T5:28:8Z</time></trkpt>
<trkpt lat="46.6284931451" lon="6.3721427321"><ele></ele><time>2015-10-10T5:28:11Z</time></trkpt>
<trkpt lat="46.6283893771" lon="6.3721752539"><ele></ele><time>2015-10-10T5:28:14Z</time></trkpt>
<trkpt lat="46.6280882154" lon="6.3721959572"><ele></ele><time>2015-10-10T5:28:17Z</time></trkpt>
<trkpt lat="46.6278907377" lon="6.3720491063"><ele></ele><time>2015-10-10T5:28:20Z</time></trkpt>
<trkpt lat="46.6277621593" lon="6.3718191069"><ele></ele><time>2015-10-10T5:28:23Z</time></trkpt>
<trkpt lat="46.6276093572" lon="6.3715167716"><ele></ele><time>2015-10-10T5:28:26Z</time></trkpt>
<trkpt lat="46.6274635121" lon="6.3712352235"><ele></ele><time>2015-10-10T5:28:29Z</time></trkpt>
<trkpt lat="46.6271879151" lon="6.3706790842"><ele></ele><time>2015-10-10T5:28:32Z</time></trkpt>
<trkpt lat="46.6269486118" lon="6.3703849632"><ele></ele><time>2015-10-10T5:28:35Z</time></trkpt>
<trkpt lat="46.6264343821" lon="6.3700467534"><ele></ele><time>2015-10-10T5:28:38Z</time></trkpt>
<trkpt lat="46.6260554362" lon="6.3699005730"><ele></ele><time>2015-10-10T5:28:41Z</time></trkpt>
<trkpt lat="46.6255329084" lon="6.3696893491"><ele></ele><time>2015-10-10T5:28:44Z</time></trkpt>
<trkpt lat="46.6254366003" lon="6.3696341962"><ele></ele><time>2015-10-10T5:28:47Z</time></trkpt>
<trkpt lat="46.6249766853" lon="6.3694254030"><ele></ele><time>2015-10-10T5:28:50Z</time></trkpt>
<trkpt lat="46.6242688335" lon="6.3693182822"><ele></ele><time>2015-10-10T5:28:53Z</time></trkpt>
<trkpt lat="46.6241147742" lon="6.3693037815"><ele></ele><time>2015-10-10T5:28:56Z</time></trkpt>
<trkpt lat="46.6235147975" lon="6.3695644587"><ele></ele><time>2015-10-10T5:28:59Z</time></trkpt>
<trkpt lat="46.6233375203" lon="6.3696762733"><ele></ele><time>2015-10-10T5:29:2Z</time></trkpt>
<trkpt lat="46.6229476780" lon="6.3697618525"><ele></ele><time>2015-10-10T5:29:5Z</time></trkpt>
<trkpt lat="46.6224129964" lon="6.3696826436"><ele></ele><time>2015-10-10T5:29:8Z</time></trkpt>
<trkpt lat="46.6218377464" lon="6.3697730005"><ele></ele><time>2015-10-10T5:29:11Z</time></trkpt>
<trkpt lat="46.6211323254" lon="6.3696287479"><ele></ele><time>2015-10-10T5:29:14Z</time></trkpt>
<trkpt lat="46.6200275067" lon="6.3693302684"><ele></ele><time>2015-10-10T5:29:17Z</time></trkpt>
<trkpt lat="46.6199211404" lon="6.3692937233"><ele></ele><time>2015-10-10T5:29:20Z</time></trkpt>
<trkpt lat="46.6194678470" lon="6.3694958109"><ele></ele><time>2015-10-10T5:29:23Z</time></trkpt>
<trkpt lat="46.6191964410" lon="6.3696438354"><ele></ele><time>2015-10-10T5:29:26Z</time></trkpt>
<trkpt lat="46.6185305826" lon="6.3698492758"><ele></ele><time>2015-10-10T5:29:29Z</time></trkpt>
<trkpt lat="46.6182442568" lon="6.3696207851"><ele></ele><time>2015-10-10T5:29:32Z</time></trkpt>
<trkpt lat="46.6179943923" lon="6.3695224654"><ele></ele><time>2015-10-10T5:29:35Z</time></trkpt>
<trkpt lat="46.6179142613" lon="6.3698843960"><ele></ele><time>2015-10-10T5:29:38Z</time></trkpt>
<trkpt lat="46.6179367248" lon="6.3701186702"><ele></ele><time>2015-10-10T5:29:41Z</time></trkpt>
<trkpt lat="46.6181404050" lon="6.3706120290"><ele></ele><time>2015-10-10T5:29:44Z</time></trkpt>
<trkpt lat="46.6184735019" lon="6.3709065691"><ele></ele><time>2015-10-10T5:29:47Z</time></trkpt>
<trkpt lat="46.6189767513" lon="6.3710921444"><ele></ele><time>2015-10-10T5:29:50Z</time></trkpt>
<trkpt lat="46.6192841996" lon="6.3714470342"><ele></ele><time>2015-10-10T5:29:53Z</time></trkpt>
<trkpt lat="46.6196984332" lon="6.3722846378"><ele></ele><time>2015-10-10T5:29:56Z</time></trkpt>
<trkpt lat="46.6199905425" lon="6.3726940099"><ele></ele><time>2015-10-10T5:29:59Z</time></trkpt>
<trkpt lat="46.6201276705" lon="6.3730514981"><ele></ele><time>2015-10-10T5:30:2Z</time></trkpt>
<trkpt lat="46.6200063005" lon="6.3730808347"><ele></ele><time>2015-10-10T5:30:5Z</time></trkpt>
<trkpt lat="46.6199084837" lon="6.3730492350"><ele></ele><time>2015-10-10T5:30:8Z</time></trkpt>
<trkpt lat="46.6196841002" lon="6.3729552738"><ele></ele><time>2015-10-10T5:30:11Z</time></trkpt>
<trkpt lat="46.6192881390" lon="6.3728187326"><ele></ele><time>2015-10-10T5:30:14Z</time></trkpt>
<trkpt lat="46.6190048307" lon="6.3729629014"><ele></ele><time>2015-10-10T5:30:17Z</time></trkpt>
<trkpt lat="46.6186592449" lon="6.3729034737"><ele></ele><time>2015-10-10T5:30:20Z</time></trkpt>
<trkpt lat="46.6186066903" lon="6.3728374243"><ele></ele><time>2015-10-10T5:30:23Z</time></trkpt>
<trkpt lat="46.6185027547" lon="6.3726980332"><ele></ele><time>2015-10-10T5:30:26Z</time></trkpt>
<trkpt lat="46.6182611044" lon="6.3726026472"><ele></ele><time>2015-10-10T5:30:29Z</time></trkpt>
<trkpt lat="46.6182879265" lon="6.3727784157"><ele></ele><time>2015-10-10T5:30:32Z</time></trkpt>
<trkpt lat="46.6184857395" lon="6.3730846066"><ele></ele><time>2015-10-10T5:30:35Z</time></trkpt>
<trkpt lat="46.6185736656" lon="6.3733989280"><ele></ele><time>2015-10-10T5:30:38Z</time></trkpt>
<trkpt lat="46.6189183295" lon="6.3737445138"><ele></ele><time>2015-10-10T5:30:41Z</time></trkpt>
<trkpt lat="46.6190200020" lon="6.3739030994"><ele></ele><time>2015-10-10T5:30:44Z</time></trkpt>
<trkpt lat="46.6190840397" lon="6.3741253875"><ele></ele><time>2015-10-10T5:30:47Z</time></trkpt>
<trkpt lat="46.6192722134" lon="6.3747319859"><ele></ele><time>2015-10-10T5:30:50Z</time></trkpt>
<trkpt lat="46.6190464888" lon="6.3748153020"><ele></ele><time>2015-10-10T5:30:53Z</time></trkpt>
<trkpt lat="46.6185427364" lon="6.3745163195"><ele></ele><time>2015-10-10T5:30:56Z</time></trkpt>
<trkpt lat="46.6177177895" lon="6.3743646909"><ele></ele><time>2015-10-10T5:30:59Z</time></trkpt>
<trkpt lat="46.6167521104" lon="6.3739571627"><ele></ele><time>2015-10-10T5:31:2Z</time></trkpt>
<trkpt lat="46.6161154211" lon="6.3736782130"><ele></ele><time>2015-10-10T5:31:5Z</time></trkpt>
<trkpt lat="46.6157096531" lon="6.3736604434"><ele></ele><time>2015-10-10T5:31:8Z</time></trkpt>
<trkpt lat="46.6152864508" lon="6.3738034386"><ele></ele><time>2015-10-10T5:31:11Z</time></trkpt>
<trkpt lat="46.6149277892" lon="6.3740258943"><ele></ele><time>2015-10-10T5:31:14Z</time></trkpt>
<trkpt lat="46.6143076960" lon="6.3743522018"><ele></ele><time>2015-10-10T5:31:17Z</time></trkpt>
<trkpt lat="46.6142103821" lon="6.3743654452"><ele></ele><time>2015-10-10T5:31:20Z</time></trkpt>
<trkpt lat="46.6133151948" lon="6.3742100447"><ele></ele><time>2015-10-10T5:31:23Z</time></trkpt>
<trkpt lat="46.6131106764" lon="6.3741279021"><ele></ele><time>2015-10-10T5:31:26Z</time></trkpt>
<trkpt lat="46.6127106082" lon="6.3741322607"><ele></ele><time>2015-10-10T5:31:29Z</time></trkpt>
<trkpt lat="46.6119767725" lon="6.3744392060"><ele></ele><time>2015-10-10T5:31:32Z</time></trkpt>
<trkpt lat="46.6117597651" lon="6.3745858055"><ele></ele><time>2015-10-10T5:31:35Z</time></trkpt>
<trkpt lat="46.6113085672" lon="6.3747603167"><ele></ele><time>2015-10-10T5:31:38Z</time></trkpt>
<trkpt lat="46.6109511629" lon="6.3748022262"><ele></ele><time>2015-10-10T5:31:41Z</time></trkpt>
<trkpt lat="46.6103253700" lon="6.3752292003"><ele></ele><time>2015-10-10T5:31:44Z</time></trkpt>
<trkpt lat="46.6095828172" lon="6.3755803183"><ele></ele><time>2015-10-10T5:31:47Z</time></trkpt>
<trkpt lat="46.6083770804" lon="6.3761844020"><ele></ele><time>2015-10-10T5:31:50Z</time></trkpt>
<trkpt lat="46.6077073663" lon="6.3765551336"><ele></ele><time>2015-10-10T5:31:53Z</time></trkpt>
<trkpt lat="46.6075578332" lon="6.3766607456"><ele></ele><time>2015-10-10T5:31:56Z</time></trkpt>
<trkpt lat="46.6072909534" lon="6.3769556209"><ele></ele><time>2015-10-10T5:31:59Z</time></trkpt>
<trkpt lat="46.6072578449" lon="6.3769646734"><ele></ele><time>2015-10-10T5:32:2Z</time></trkpt>
<trkpt lat="46.6072298493" lon="6.3771498296"><ele></ele><time>2015-10-10T5:32:5Z</time></trkpt>
<trkpt lat="46.6072771233" lon="6.3771599717"><ele></ele><time>2015-10-10T5:32:8Z</time></trkpt>
<trkpt lat="46.6072730999" lon="6.3771652523"><ele></ele><time>2015-10-10T5:32:11Z</time></trkpt>
<trkpt lat="46.6072805598" lon="6.3771553617"><ele></ele><time>2015-10-10T5:32:14Z</time></trkpt>
<trkpt lat="46.6072816495" lon="6.3771515898"><ele></ele><time>2015-10-10T5:32:17Z</time></trkpt>
<trkpt lat="46.6072920430" lon="6.3770529348"><ele></ele><time>2015-10-10T5:32:20Z</time></trkpt>
<trkpt lat="46.6072569229" lon="6.3769904058"><ele></ele><time>2015-10-10T5:32:23Z</time></trkpt>
<trkpt lat="46.6069226526" lon="6.3767065108"><ele></ele><time>2015-10-10T5:32:26Z</time></trkpt>
<trkpt lat="46.6067987680" lon="6.3766497653"><ele></ele><time>2015-10-10T5:32:29Z</time></trkpt>
<trkpt lat="46.6063489951" lon="6.3765781838"><ele></ele><time>2015-10-10T5:32:32Z</time></trkpt>
<trkpt lat="46.6061169002" lon="6.3764274772"><ele></ele><time>2015-10-10T5:32:35Z</time></trkpt>
<trkpt lat="46.6055976413" lon="6.3760666363"><ele></ele><time>2015-10-10T5:32:38Z</time></trkpt>
<trkpt lat="46.6055560671" lon="6.3760440052"><ele></ele><time>2015-10-10T5:32:41Z</time></trkpt>
<trkpt lat="46.6051662248" lon="6.3758502994"><ele></ele><time>2015-10-10T5:32:44Z</time></trkpt>
<trkpt lat="46.6047711857" lon="6.3755766302"><ele></ele><time>2015-10-10T5:32:47Z</time></trkpt>
<trkpt lat="46.6044464707" lon="6.3752374146"><ele></ele><time>2015-10-10T5:32:50Z</time></trkpt>
<trkpt lat="46.6041349154" lon="6.3749898970"><ele></ele><time>2015-10-10T5:32:53Z</time></trkpt>
<trkpt lat="46.6035963781" lon="6.3745827042"><ele></ele><time>2015-10-10T5:32:56Z</time></trkpt>
<trkpt lat="46.6031989921" lon="6.3744890783"><ele></ele><time>2015-10-10T5:32:59Z</time></trkpt>
<trkpt lat="46.6030911170" lon="6.3745191693"><ele></ele><time>2015-10-10T5:33:2Z</time></trkpt>
<trkpt lat="46.6026046313" lon="6.3745102007"><ele></ele><time>2015-10-10T5:33:5Z</time></trkpt>
<trkpt lat="46.6022997815" lon="6.3744488452"><ele></ele><time>2015-10-10T5:33:8Z</time></trkpt>
<trkpt lat="46.6021025553" lon="6.3741791993"><ele></ele><time>2015-10-10T5:33:11Z</time></trkpt>
<trkpt lat="46.6020759009" lon="6.3737098966"><ele></ele><time>2015-10-10T5:33:14Z</time></trkpt>
<trkpt lat="46.6019590572" lon="6.3733695075"><ele></ele><time>2015-10-10T5:33:17Z</time></trkpt>
<trkpt lat="46.6018580552" lon="6.3732583635"><ele></ele><time>2015-10-10T5:33:20Z</time></trkpt>
<trkpt lat="46.6013028380" lon="6.3728998695"><ele></ele><time>2015-10-10T5:33:23Z</time></trkpt>
<trkpt lat="46.6011595912" lon="6.3727935031"><ele></ele><time>2015-10-10T5:33:26Z</time></trkpt>
<trkpt lat="46.6010280792" lon="6.3723785151"><ele></ele><time>2015-10-10T5:33:29Z</time></trkpt>
<trkpt lat="46.6010518000" lon="6.3722901698"><ele></ele><time>2015-10-10T5:33:32Z</time></trkpt>
<trkpt lat="46.6011652909" lon="6.3718914427"><ele></ele><time>2015-10-10T5:33:35Z</time></trkpt>
<trkpt lat="46.6012575757" lon="6.3715420011"><ele></ele><time>2015-10-10T5:33:38Z</time></trkpt>
<trkpt lat="46.6012517922" lon="6.3709268533"><ele></ele><time>2015-10-10T5:33:41Z</time></trkpt>
<trkpt lat="46.6011594236" lon="6.3706126157"><ele></ele><time>2015-10-10T5:33:44Z</time></trkpt>
<trkpt lat="46.6011431627" lon="6.3697655406"><ele></ele><time>2015-10-10T5:33:47Z</time></trkpt>
<trkpt lat="46.6010861658" lon="6.3693989161"><ele></ele><time>2015-10-10T5:33:50Z</time></trkpt>
<trkpt lat="46.6008467786" lon="6.3687591255"><ele></ele><time>2015-10-10T5:33:53Z</time></trkpt>
<trkpt lat="46.6006359737" lon="6.3683712948"><ele></ele><time>2015-10-10T5:33:56Z</time></trkpt>
<trkpt lat="46.6005507298" lon="6.3682829496"><ele></ele><time>2015-10-10T5:33:59Z</time></trkpt>
<trkpt lat="46.6004179604" lon="6.3685277011"><ele></ele><time>2015-10-10T5:34:2Z</time></trkpt>
<trkpt lat="46.6004169546" lon="6.3685841113"><ele></ele><time>2015-10-10T5:34:5Z</time></trkpt>
<trkpt lat="46.6004043818" lon="6.3689665776"><ele></ele><time>2015-10-10T5:34:8Z</time></trkpt>
<trkpt lat="46.6003886238" lon="6.3689925615"><ele></ele><time>2015-10-10T5:34:11Z</time></trkpt>
</trkseg></trk></gpx>